Observation data for Tarzan on 02/11/2019      Previous  Date       Current Mesonet Observations  Soil Data  Daily Summary Page  Observations in Plain Language
KTA1 110600Z 16005KT 06/05 A2993 RMK A01 T00610051  RH  094%=      5-min Rain = 0
KTA1 110601Z 16006KT 06/05 A2993 RMK A01 T00600051  RH  094%=      5-min Rain = 0
KTA1 110602Z 16006KT 06/05 A2993 RMK A01 T00600051  RH  094%=      5-min Rain = 0
KTA1 110603Z 16006KT 06/05 A2993 RMK A01 T00600051  RH  094%=      5-min Rain = 0
KTA1 110604Z 16006KT 06/05 A2993 RMK A01 T00600051  RH  094%=      5-min Rain = 0
KTA1 110605Z 16006KT 06/05 A2993 RMK A01 T00600051  RH  094%=      5-min Rain = 0
KTA1 110606Z 17007KT 06/05 A2993 RMK A01 T00600051  RH  094%=      5-min Rain = 0
KTA1 110607Z 17006KT 06/05 A2993 RMK A01 T00590051  RH  094%=      5-min Rain = 0
KTA1 110608Z 17006KT 06/05 A2993 RMK A01 T00590051  RH  094%=      5-min Rain = 0
KTA1 110609Z 17006KT 06/05 A2993 RMK A01 T00590051  RH  095%=      5-min Rain = 0
KTA1 110610Z 16007KT 06/05 A2993 RMK A01 T00600052  RH  095%=      5-min Rain = 0
KTA1 110611Z 16006KT 06/05 A2993 RMK A01 T00600052  RH  095%=      5-min Rain = 0
KTA1 110612Z 17005KT 06/05 A2993 RMK A01 T00600052  RH  094%=      5-min Rain = 0
KTA1 110613Z 17006KT 06/05 A2993 RMK A01 T00600052  RH  094%=      5-min Rain = 0
KTA1 110614Z 17006KT 06/05 A2993 RMK A01 T00600052  RH  094%=      5-min Rain = 0
KTA1 110615Z 17007KT 06/05 A2993 RMK A01 T00600052  RH  094%=      5-min Rain = 0
KTA1 110616Z 16007KT 06/05 A2993 RMK A01 T00600052  RH  094%=      5-min Rain = 0
KTA1 110617Z 17008KT 06/05 A2993 RMK A01 T00610052  RH  094%=      5-min Rain = 0
KTA1 110618Z 16007KT 06/05 A2993 RMK A01 T00610052  RH  094%=      5-min Rain = 0
KTA1 110619Z 16008KT 06/05 A2993 RMK A01 T00610052  RH  094%=      5-min Rain = 0
KTA1 110620Z 16008KT 06/05 A2993 RMK A01 T00610052  RH  094%=      5-min Rain = 0
KTA1 110621Z 17007KT 06/05 A2993 RMK A01 T00620052  RH  094%=      5-min Rain = 0
KTA1 110622Z 17008KT 06/05 A2993 RMK A01 T00620052  RH  094%=      5-min Rain = 0
KTA1 110623Z 17007KT 06/05 A2993 RMK A01 T00610052  RH  094%=      5-min Rain = 0
KTA1 110624Z 17008KT 06/05 A2993 RMK A01 T00610052  RH  094%=      5-min Rain = 0
KTA1 110625Z 17008KT 06/05 A2993 RMK A01 T00610052  RH  093%=      5-min Rain = 0
KTA1 110626Z 17007KT 06/05 A2993 RMK A01 T00620052  RH  093%=      5-min Rain = 0
KTA1 110627Z 18007KT 06/05 A2992 RMK A01 T00620052  RH  093%=      5-min Rain = 0
KTA1 110628Z 17007KT 06/05 A2992 RMK A01 T00620052  RH  093%=      5-min Rain = 0
KTA1 110629Z 18007KT 06/05 A2992 RMK A01 T00620052  RH  093%=      5-min Rain = 0
KTA1 110630Z 18007KT 06/05 A2992 RMK A01 T00620052  RH  093%=      5-min Rain = 0
KTA1 110631Z 18006KT 06/05 A2992 RMK A01 T00620052  RH  093%=      5-min Rain = 0
KTA1 110632Z 18006KT 06/05 A2992 RMK A01 T00620052  RH  093%=      5-min Rain = 0
KTA1 110633Z 18007KT 06/05 A2992 RMK A01 T00620052  RH  093%=      5-min Rain = 0
KTA1 110634Z 18006KT 06/05 A2992 RMK A01 T00620052  RH  093%=      5-min Rain = 0
KTA1 110635Z 18007KT 06/05 A2992 RMK A01 T00620052  RH  093%=      5-min Rain = 0
KTA1 110636Z 18006KT 06/05 A2992 RMK A01 T00620051  RH  093%=      5-min Rain = 0
KTA1 110637Z 18006KT 06/05 A2992 RMK A01 T00620052  RH  093%=      5-min Rain = 0
KTA1 110638Z 18006KT 06/05 A2992 RMK A01 T00620052  RH  093%=      5-min Rain = 0
KTA1 110639Z 19006KT 06/05 A2992 RMK A01 T00620051  RH  093%=      5-min Rain = 0
KTA1 110640Z 19006KT 06/05 A2992 RMK A01 T00620051  RH  093%=      5-min Rain = 0
KTA1 110641Z 19006KT 06/05 A2992 RMK A01 T00620051  RH  093%=      5-min Rain = 0
KTA1 110642Z 19006KT 06/05 A2991 RMK A01 T00620051  RH  093%=      5-min Rain = 0
KTA1 110643Z 19005KT 06/05 A2991 RMK A01 T00620052  RH  093%=      5-min Rain = 0
KTA1 110644Z 19005KT 06/05 A2991 RMK A01 T00620051  RH  093%=      5-min Rain = 0
KTA1 110645Z 19006KT 06/05 A2991 RMK A01 T00620051  RH  093%=      5-min Rain = 0
KTA1 110646Z 19007KT 06/05 A2991 RMK A01 T00620051  RH  093%=      5-min Rain = 0
KTA1 110647Z 18006KT 06/05 A2991 RMK A01 T00620051  RH  093%=      5-min Rain = 0
KTA1 110648Z 19006KT 06/05 A2991 RMK A01 T00620051  RH  093%=      5-min Rain = 0
KTA1 110649Z 18006KT 06/05 A2991 RMK A01 T00620051  RH  093%=      5-min Rain = 0
KTA1 110650Z 19006KT 06/05 A2991 RMK A01 T00620051  RH  093%=      5-min Rain = 0
KTA1 110651Z 19006KT 06/05 A2991 RMK A01 T00620051  RH  093%=      5-min Rain = 0
KTA1 110652Z 19006KT 06/05 A2991 RMK A01 T00620051  RH  093%=      5-min Rain = 0
KTA1 110653Z 19006KT 06/05 A2991 RMK A01 T00620051  RH  093%=      5-min Rain = 0
KTA1 110654Z 19006KT 06/05 A2991 RMK A01 T00620051  RH  093%=      5-min Rain = 0
KTA1 110655Z 19007KT 06/05 A2991 RMK A01 T00620051  RH  093%=      5-min Rain = 0
KTA1 110656Z 19006KT 06/05 A2991 RMK A01 T00620051  RH  093%=      5-min Rain = 0
KTA1 110657Z 19006KT 06/05 A2991 RMK A01 T00620051  RH  093%=      5-min Rain = 0
KTA1 110658Z 20006KT 06/05 A2991 RMK A01 T00620051  RH  093%=      5-min Rain = 0
KTA1 110659Z 20006KT 06/05 A2991 RMK A01 T00620051  RH  093%=      5-min Rain = 0
KTA1 110700Z 20006KT 06/05 A2991 RMK A01 T00620051  RH  093%=      5-min Rain = 0
KTA1 110701Z 20006KT 06/05 A2991 RMK A01 T00610051  RH  093%=      5-min Rain = 0
KTA1 110702Z 20006KT 06/05 A2991 RMK A01 T00610052  RH  093%=      5-min Rain = 0
KTA1 110703Z 20006KT 06/05 A2991 RMK A01 T00610051  RH  093%=      5-min Rain = 0
KTA1 110704Z 19006KT 06/05 A2991 RMK A01 T00610051  RH  093%=      5-min Rain = 0
KTA1 110705Z 20005KT 06/05 A2991 RMK A01 T00610051  RH  093%=      5-min Rain = 0
KTA1 110706Z 21005KT 06/05 A2991 RMK A01 T00610051  RH  093%=      5-min Rain = 0
KTA1 110707Z 21006KT 06/05 A2991 RMK A01 T00610051  RH  093%=      5-min Rain = 0
KTA1 110708Z 20006KT 06/05 A2991 RMK A01 T00620052  RH  093%=      5-min Rain = 0
KTA1 110709Z 20006KT 06/05 A2991 RMK A01 T00610051  RH  093%=      5-min Rain = 0
KTA1 110710Z 21006KT 06/05 A2991 RMK A01 T00610051  RH  093%=      5-min Rain = 0
KTA1 110711Z 20006KT 06/05 A2991 RMK A01 T00620051  RH  093%=      5-min Rain = 0
KTA1 110712Z 20007KT 06/05 A2991 RMK A01 T00610051  RH  093%=      5-min Rain = 0
KTA1 110713Z 21006KT 06/05 A2991 RMK A01 T00610051  RH  093%=      5-min Rain = 0
KTA1 110714Z 21006KT 06/05 A2991 RMK A01 T00620051  RH  093%=      5-min Rain = 0
KTA1 110715Z 21006KT 06/05 A2991 RMK A01 T00610051  RH  093%=      5-min Rain = 0
KTA1 110716Z 21006KT 06/05 A2991 RMK A01 T00610051  RH  093%=      5-min Rain = 0
KTA1 110717Z 22006KT 06/05 A2991 RMK A01 T00610051  RH  093%=      5-min Rain = 0
KTA1 110718Z 22005KT 06/05 A2991 RMK A01 T00610051  RH  093%=      5-min Rain = 0
KTA1 110719Z 22005KT 06/05 A2991 RMK A01 T00610051  RH  093%=      5-min Rain = 0
KTA1 110720Z 22006KT 06/05 A2991 RMK A01 T00610051  RH  094%=      5-min Rain = 0
KTA1 110721Z 22005KT 06/05 A2991 RMK A01 T00600051  RH  094%=      5-min Rain = 0
KTA1 110722Z 21005KT 06/05 A2991 RMK A01 T00600051  RH  094%=      5-min Rain = 0
KTA1 110723Z 21005KT 06/05 A2991 RMK A01 T00600050  RH  094%=      5-min Rain = 0
KTA1 110724Z 22005KT 06/05 A2991 RMK A01 T00600051  RH  094%=      5-min Rain = 0
KTA1 110725Z 23004KT 06/05 A2991 RMK A01 T00590050  RH  094%=      5-min Rain = 0
KTA1 110726Z 23004KT 06/05 A2991 RMK A01 T00590050  RH  094%=      5-min Rain = 0
KTA1 110727Z 24004KT 06/05 A2991 RMK A01 T00580050  RH  094%=      5-min Rain = 0
KTA1 110728Z 25004KT 06/05 A2991 RMK A01 T00580049  RH  094%=      5-min Rain = 0
KTA1 110729Z 25004KT 06/05 A299 RMK A01 T00570048  RH  094%=      5-min Rain = 0
KTA1 110730Z 25004KT 06/05 A299 RMK A01 T00560048  RH  094%=      5-min Rain = 0
KTA1 110731Z 24004KT 06/05 A299 RMK A01 T00560048  RH  095%=      5-min Rain = 0
KTA1 110732Z 24004KT 06/05 A299 RMK A01 T00550048  RH  095%=      5-min Rain = 0
KTA1 110733Z 24004KT 06/05 A299 RMK A01 T00550047  RH  095%=      5-min Rain = 0
KTA1 110734Z 24004KT 05/05 A299 RMK A01 T00540047  RH  095%=      5-min Rain = 0
KTA1 110735Z 25004KT 05/05 A299 RMK A01 T00540047  RH  095%=      5-min Rain = 0
KTA1 110736Z 25004KT 05/05 A299 RMK A01 T00540047  RH  095%=      5-min Rain = 0
KTA1 110737Z 24004KT 05/05 A299 RMK A01 T00530046  RH  095%=      5-min Rain = 0
KTA1 110738Z 24004KT 05/05 A299 RMK A01 T00520046  RH  095%=      5-min Rain = 0
KTA1 110739Z 24005KT 05/05 A299 RMK A01 T00520045  RH  096%=      5-min Rain = 0
KTA1 110740Z 24005KT 05/05 A299 RMK A01 T00510045  RH  096%=      5-min Rain = 0
KTA1 110741Z 25004KT 05/05 A299 RMK A01 T00510045  RH  096%=      5-min Rain = 0
KTA1 110742Z 26004KT 05/05 A299 RMK A01 T00510045  RH  096%=      5-min Rain = 0
KTA1 110743Z 26004KT 05/04 A299 RMK A01 T00500044  RH  096%=      5-min Rain = 0
KTA1 110744Z 26003KT 05/04 A299 RMK A01 T00500044  RH  096%=      5-min Rain = 0
KTA1 110745Z 26004KT 05/04 A299 RMK A01 T00490044  RH  096%=      5-min Rain = 0
KTA1 110746Z 27004KT 05/04 A299 RMK A01 T00490044  RH  096%=      5-min Rain = 0
KTA1 110747Z 28005KT 05/04 A299 RMK A01 T00490043  RH  096%=      5-min Rain = 0
KTA1 110748Z 28005KT 05/04 A2991 RMK A01 T00480043  RH  096%=      5-min Rain = 0
KTA1 110749Z 29006KT 05/04 A2991 RMK A01 T00480042  RH  096%=      5-min Rain = 0
KTA1 110750Z 29006KT 05/04 A2991 RMK A01 T00470042  RH  097%=      5-min Rain = 0
KTA1 110751Z 29006KT 05/04 A2991 RMK A01 T00470042  RH  097%=      5-min Rain = 0
KTA1 110752Z 28005KT 05/04 A2991 RMK A01 T00460042  RH  097%=      5-min Rain = 0
KTA1 110753Z 29006KT 05/04 A2991 RMK A01 T00460042  RH  097%=      5-min Rain = 0
KTA1 110754Z 29006KT 05/04 A2991 RMK A01 T00460042  RH  097%=      5-min Rain = 0
KTA1 110755Z 29005KT 05/04 A2991 RMK A01 T00460042  RH  097%=      5-min Rain = 0
KTA1 110756Z 30005KT 05/04 A2991 RMK A01 T00460042  RH  097%=      5-min Rain = 0
KTA1 110757Z 30004KT 05/04 A2991 RMK A01 T00460042  RH  097%=      5-min Rain = 0
KTA1 110758Z 30005KT 05/04 A2991 RMK A01 T00450041  RH  097%=      5-min Rain = 0
KTA1 110759Z 30005KT 05/04 A2991 RMK A01 T00450040  RH  097%=      5-min Rain = 0
KTA1 110800Z 30004KT 04/04 A299 RMK A01 T00440039  RH  097%=      5-min Rain = 0
KTA1 110801Z 30004KT 04/04 A299 RMK A01 T00440039  RH  097%=      5-min Rain = 0
KTA1 110802Z 30005KT 04/04 A2991 RMK A01 T00430039  RH  097%=      5-min Rain = 0
KTA1 110803Z 30005KT 04/04 A2991 RMK A01 T00430038  RH  097%=      5-min Rain = 0
KTA1 110804Z 30005KT 04/04 A2991 RMK A01 T00430038  RH  097%=      5-min Rain = 0
KTA1 110805Z 30006KT 04/04 A2991 RMK A01 T00430038  RH  097%=      5-min Rain = 0
KTA1 110806Z 30005KT 04/04 A2991 RMK A01 T00420038  RH  097%=      5-min Rain = 0
KTA1 110807Z 30005KT 04/04 A2991 RMK A01 T00420038  RH  097%=      5-min Rain = 0
KTA1 110808Z 30005KT 04/04 A299 RMK A01 T00420038  RH  097%=      5-min Rain = 0
KTA1 110809Z 30005KT 04/04 A299 RMK A01 T00420038  RH  097%=      5-min Rain = 0
KTA1 110810Z 29004KT 04/04 A299 RMK A01 T00420038  RH  097%=      5-min Rain = 0
KTA1 110811Z 29004KT 04/04 A299 RMK A01 T00420038  RH  097%=      5-min Rain = 0
KTA1 110812Z 29004KT 04/04 A299 RMK A01 T00410038  RH  097%=      5-min Rain = 0
KTA1 110813Z 28004KT 04/04 A299 RMK A01 T00410038  RH  097%=      5-min Rain = 0
KTA1 110814Z 28004KT 04/04 A299 RMK A01 T00410038  RH  098%=      5-min Rain = 0
KTA1 110815Z 28003KT 04/04 A299 RMK A01 T00410038  RH  098%=      5-min Rain = 0
KTA1 110816Z 28003KT 04/04 A299 RMK A01 T00410038  RH  098%=      5-min Rain = 0
KTA1 110817Z 28004KT 04/04 A299 RMK A01 T00400037  RH  098%=      5-min Rain = 0
KTA1 110818Z 28004KT 04/04 A299 RMK A01 T00400036  RH  098%=      5-min Rain = 0
KTA1 110819Z 28004KT 04/04 A299 RMK A01 T00400036  RH  098%=      5-min Rain = 0
KTA1 110820Z 28004KT 04/04 A299 RMK A01 T00390035  RH  098%=      5-min Rain = 0
KTA1 110821Z 28004KT 04/04 A299 RMK A01 T00390035  RH  098%=      5-min Rain = 0
KTA1 110822Z 28004KT 04/04 A299 RMK A01 T00390035  RH  098%=      5-min Rain = 0
KTA1 110823Z 28004KT 04/04 A299 RMK A01 T00380035  RH  098%=      5-min Rain = 0
KTA1 110824Z 28005KT 04/04 A299 RMK A01 T00380035  RH  098%=      5-min Rain = 0
KTA1 110825Z 28005KT 04/04 A299 RMK A01 T00380035  RH  098%=      5-min Rain = 0
KTA1 110826Z 28005KT 04/04 A299 RMK A01 T00380035  RH  098%=      5-min Rain = 0
KTA1 110827Z 28005KT 04/03 A299 RMK A01 T00370034  RH  098%=      5-min Rain = 0
KTA1 110828Z 27005KT 04/03 A299 RMK A01 T00370034  RH  098%=      5-min Rain = 0
KTA1 110829Z 27005KT 04/03 A299 RMK A01 T00360033  RH  098%=      5-min Rain = 0
KTA1 110830Z 27004KT 04/03 A299 RMK A01 T00350032  RH  098%=      5-min Rain = 0
KTA1 110831Z 26005KT 04/03 A299 RMK A01 T00350032  RH  098%=      5-min Rain = 0
KTA1 110832Z 26005KT 03/03 A299 RMK A01 T00340031  RH  098%=      5-min Rain = 0
KTA1 110833Z 26005KT 03/03 A299 RMK A01 T00340031  RH  098%=      5-min Rain = 0
KTA1 110834Z 26005KT 03/03 A299 RMK A01 T00330030  RH  098%=      5-min Rain = 0
KTA1 110835Z 26005KT 03/03 A2989 RMK A01 T00330030  RH  098%=      5-min Rain = 0
KTA1 110836Z 26005KT 03/03 A2989 RMK A01 T00330030  RH  098%=      5-min Rain = 0
KTA1 110837Z 26005KT 03/03 A2989 RMK A01 T00330030  RH  098%=      5-min Rain = 0
KTA1 110838Z 26005KT 03/03 A2989 RMK A01 T00320029  RH  098%=      5-min Rain = 0
KTA1 110839Z 26005KT 03/03 A2989 RMK A01 T00320029  RH  098%=      5-min Rain = 0
KTA1 110840Z 26005KT 03/03 A2989 RMK A01 T00310028  RH  098%=      5-min Rain = 0
KTA1 110841Z 26005KT 03/03 A2989 RMK A01 T00310028  RH  098%=      5-min Rain = 0
KTA1 110842Z 26005KT 03/03 A2989 RMK A01 T00310028  RH  098%=      5-min Rain = 0
KTA1 110843Z 26005KT 03/03 A2989 RMK A01 T00310028  RH  098%=      5-min Rain = 0
KTA1 110844Z 26005KT 03/03 A2989 RMK A01 T00310029  RH  098%=      5-min Rain = 0
KTA1 110845Z 26005KT 03/03 A2989 RMK A01 T00300028  RH  098%=      5-min Rain = 0
KTA1 110846Z 26005KT 03/03 A2989 RMK A01 T00300028  RH  098%=      5-min Rain = 0
KTA1 110847Z 26005KT 03/03 A2988 RMK A01 T00300028  RH  099%=      5-min Rain = 0
KTA1 110848Z 26005KT 03/03 A2988 RMK A01 T00300028  RH  099%=      5-min Rain = 0
KTA1 110849Z 26005KT 03/03 A2988 RMK A01 T00300028  RH  099%=      5-min Rain = 0
KTA1 110850Z 26005KT 03/03 A2988 RMK A01 T00300028  RH  099%=      5-min Rain = 0
KTA1 110851Z 26005KT 03/03 A2988 RMK A01 T00290027  RH  099%=      5-min Rain = 0
KTA1 110852Z 26005KT 03/03 A2988 RMK A01 T00280026  RH  099%=      5-min Rain = 0
KTA1 110853Z 26005KT 03/03 A2988 RMK A01 T00270025  RH  099%=      5-min Rain = 0
KTA1 110854Z 26006KT 03/03 A2988 RMK A01 T00270026  RH  099%=      5-min Rain = 0
KTA1 110855Z 26006KT 03/03 A2988 RMK A01 T00270026  RH  099%=      5-min Rain = 0
KTA1 110856Z 26006KT 03/03 A2988 RMK A01 T00270026  RH  099%=      5-min Rain = 0
KTA1 110857Z 25006KT 03/03 A2988 RMK A01 T00270025  RH  099%=      5-min Rain = 0
KTA1 110858Z 25006KT 03/03 A2988 RMK A01 T00270026  RH  099%=      5-min Rain = 0
KTA1 110859Z 25006KT 03/03 A2988 RMK A01 T00270025  RH  099%=      5-min Rain = 0
KTA1 110900Z 25005KT 03/03 A2988 RMK A01 T00270026  RH  099%=      5-min Rain = 0
KTA1 110901Z 25005KT 03/03 A2988 RMK A01 T00270026  RH  099%=      5-min Rain = 0
KTA1 110902Z 25005KT 03/03 A2988 RMK A01 T00270026  RH  099%=      5-min Rain = 0
KTA1 110903Z 26005KT 03/03 A2988 RMK A01 T00280026  RH  099%=      5-min Rain = 0
KTA1 110904Z 26005KT 03/03 A2988 RMK A01 T00270026  RH  099%=      5-min Rain = 0
KTA1 110905Z 26005KT 03/03 A2988 RMK A01 T00280027  RH  099%=      5-min Rain = 0
KTA1 110906Z 26005KT 03/03 A2988 RMK A01 T00280027  RH  099%=      5-min Rain = 0
KTA1 110907Z 26006KT 03/03 A2988 RMK A01 T00280027  RH  099%=      5-min Rain = 0
KTA1 110908Z 26006KT 03/03 A2988 RMK A01 T00290027  RH  099%=      5-min Rain = 0
KTA1 110909Z 26006KT 03/03 A2988 RMK A01 T00290028  RH  099%=      5-min Rain = 0
KTA1 110910Z 26006KT 03/03 A2988 RMK A01 T00290028  RH  099%=      5-min Rain = 0
KTA1 110911Z 26006KT 03/03 A2988 RMK A01 T00290028  RH  099%=      5-min Rain = 0
KTA1 110912Z 25006KT 03/03 A2988 RMK A01 T00290028  RH  099%=      5-min Rain = 0
KTA1 110913Z 25006KT 03/03 A2987 RMK A01 T00290028  RH  099%=      5-min Rain = 0
KTA1 110914Z 25006KT 03/03 A2987 RMK A01 T00290028  RH  099%=      5-min Rain = 0
KTA1 110915Z 25006KT 03/03 A2988 RMK A01 T00290028  RH  099%=      5-min Rain = 0
KTA1 110916Z 25006KT 03/03 A2988 RMK A01 T00280027  RH  099%=      5-min Rain = 0
KTA1 110917Z 25006KT 03/03 A2988 RMK A01 T00280027  RH  099%=      5-min Rain = 0
KTA1 110918Z 24006KT 03/03 A2988 RMK A01 T00280027  RH  099%=      5-min Rain = 0
KTA1 110919Z 24006KT 03/03 A2988 RMK A01 T00280028  RH  099%=      5-min Rain = 0
KTA1 110920Z 23007KT 03/03 A2988 RMK A01 T00280028  RH  099%=      5-min Rain = 0
KTA1 110921Z 24007KT 03/03 A2988 RMK A01 T00290029  RH  100%=      5-min Rain = 0
KTA1 110922Z 24007KT 03/03 A2988 RMK A01 T00300030  RH  100%=      5-min Rain = 0
KTA1 110923Z 24007KT 03/03 A2988 RMK A01 T00310031  RH  100%=      5-min Rain = 0
KTA1 110924Z 23006KT 03/03 A2988 RMK A01 T00320031  RH  100%=      5-min Rain = 0
KTA1 110925Z 23006KT 03/03 A2988 RMK A01 T00330032  RH  100%=      5-min Rain = 0
KTA1 110926Z 23007KT 03/03 A2988 RMK A01 T00330033  RH  100%=      5-min Rain = 0
KTA1 110927Z 23007KT 03/03 A2988 RMK A01 T00330032  RH  100%=      5-min Rain = 0
KTA1 110928Z 23007KT 03/03 A2988 RMK A01 T00330032  RH  100%=      5-min Rain = 0
KTA1 110929Z 23007KT 03/03 A2988 RMK A01 T00330032  RH  100%=      5-min Rain = 0
KTA1 110930Z 24007KT 03/03 A2988 RMK A01 T00330033  RH  100%=      5-min Rain = 0
KTA1 110931Z 24007KT 03/03 A2988 RMK A01 T00330032  RH  100%=      5-min Rain = 0
KTA1 110932Z 24007KT 03/03 A2988 RMK A01 T00320031  RH  100%=      5-min Rain = 0
KTA1 110933Z 23008KT 03/03 A2988 RMK A01 T00310031  RH  100%=      5-min Rain = 0
KTA1 110934Z 23008KT 03/03 A2988 RMK A01 T00310031  RH  100%=      5-min Rain = 0
KTA1 110935Z 23008KT 03/03 A2988 RMK A01 T00310031  RH  100%=      5-min Rain = 0
KTA1 110936Z 22008KT 03/03 A2988 RMK A01 T00320031  RH  100%=      5-min Rain = 0
KTA1 110937Z 22008KT 03/03 A2988 RMK A01 T00330032  RH  100%=      5-min Rain = 0
KTA1 110938Z 23007KT 03/03 A2987 RMK A01 T00340033  RH  100%=      5-min Rain = 0
KTA1 110939Z 23008KT 03/03 A2987 RMK A01 T00340034  RH  100%=      5-min Rain = 0
KTA1 110940Z 23007KT 04/04 A2987 RMK A01 T00350035  RH  100%=      5-min Rain = 0
KTA1 110941Z 23007KT 04/04 A2987 RMK A01 T00350035  RH  100%=      5-min Rain = 0
KTA1 110942Z 22007KT 04/04 A2987 RMK A01 T00350035  RH  100%=      5-min Rain = 0
KTA1 110943Z 22007KT 04/04 A2987 RMK A01 T00350035  RH  100%=      5-min Rain = 0
KTA1 110944Z 22007KT 04/04 A2987 RMK A01 T00350035  RH  100%=      5-min Rain = 0
KTA1 110945Z 23007KT 04/04 A2987 RMK A01 T00350035  RH  100%=      5-min Rain = 0
KTA1 110946Z 22007KT 04/04 A2987 RMK A01 T00350035  RH  100%=      5-min Rain = 0
KTA1 110947Z 22007KT 04/04 A2987 RMK A01 T00350035  RH  100%=      5-min Rain = 0
KTA1 110948Z 22006KT 04/03 A2987 RMK A01 T00350034  RH  100%=      5-min Rain = 0
KTA1 110949Z 23006KT 04/04 A2987 RMK A01 T00350035  RH  100%=      5-min Rain = 0
KTA1 110950Z 23006KT 04/03 A2987 RMK A01 T00350034  RH  100%=      5-min Rain = 0
KTA1 110951Z 22005KT 04/03 A2987 RMK A01 T00350034  RH  100%=      5-min Rain = 0
KTA1 110952Z 22005KT 03/03 A2987 RMK A01 T00340033  RH  099%=      5-min Rain = 0
KTA1 110953Z 23005KT 03/03 A2987 RMK A01 T00340033  RH  099%=      5-min Rain = 0
KTA1 110954Z 22005KT 03/03 A2987 RMK A01 T00340033  RH  099%=      5-min Rain = 0
KTA1 110955Z 22005KT 03/03 A2987 RMK A01 T00330032  RH  099%=      5-min Rain = 0
KTA1 110956Z 22005KT 03/03 A2987 RMK A01 T00320031  RH  099%=      5-min Rain = 0
KTA1 110957Z 22005KT 03/03 A2987 RMK A01 T00320030  RH  099%=      5-min Rain = 0
KTA1 110958Z 22005KT 03/03 A2987 RMK A01 T00310030  RH  099%=      5-min Rain = 0
KTA1 110959Z 21005KT 03/03 A2987 RMK A01 T00310029  RH  099%=      5-min Rain = 0
KTA1 111000Z 20005KT 03/03 A2987 RMK A01 T00310029  RH  099%=      5-min Rain = 0
KTA1 111001Z 20004KT 03/03 A2987 RMK A01 T00310029  RH  099%=      5-min Rain = 0
KTA1 111002Z 20004KT 03/03 A2987 RMK A01 T00300029  RH  099%=      5-min Rain = 0
KTA1 111003Z 19005KT 03/03 A2986 RMK A01 T00300029  RH  099%=      5-min Rain = 0
KTA1 111004Z 20006KT 03/03 A2986 RMK A01 T00300029  RH  099%=      5-min Rain = 0
KTA1 111005Z 19006KT 03/03 A2986 RMK A01 T00300028  RH  099%=      5-min Rain = 0
KTA1 111006Z 19007KT 03/03 A2987 RMK A01 T00300028  RH  099%=      5-min Rain = 0
KTA1 111007Z 19006KT 03/03 A2987 RMK A01 T00290027  RH  099%=      5-min Rain = 0
KTA1 111008Z 18006KT 03/03 A2986 RMK A01 T00280026  RH  099%=      5-min Rain = 0
KTA1 111009Z 18006KT 03/03 A2986 RMK A01 T00270025  RH  099%=      5-min Rain = 0
KTA1 111010Z 18005KT 03/03 A2986 RMK A01 T00270025  RH  099%=      5-min Rain = 0
KTA1 111011Z 18006KT 03/03 A2986 RMK A01 T00270025  RH  099%=      5-min Rain = 0
KTA1 111012Z 18006KT 03/02 A2986 RMK A01 T00260024  RH  099%=      5-min Rain = 0
KTA1 111013Z 19006KT 03/03 A2986 RMK A01 T00260025  RH  099%=      5-min Rain = 0
KTA1 111014Z 19005KT 03/03 A2986 RMK A01 T00260025  RH  099%=      5-min Rain = 0
KTA1 111015Z 19006KT 03/03 A2986 RMK A01 T00260025  RH  099%=      5-min Rain = 0
KTA1 111016Z 19006KT 03/03 A2986 RMK A01 T00260025  RH  099%=      5-min Rain = 0
KTA1 111017Z 19006KT 03/03 A2986 RMK A01 T00260025  RH  099%=      5-min Rain = 0
KTA1 111018Z 19007KT 03/02 A2987 RMK A01 T00260024  RH  099%=      5-min Rain = 0
KTA1 111019Z 19007KT 03/02 A2987 RMK A01 T00250024  RH  099%=      5-min Rain = 0
KTA1 111020Z 19007KT 03/02 A2987 RMK A01 T00250024  RH  099%=      5-min Rain = 0
KTA1 111021Z 19008KT 02/02 A2987 RMK A01 T00240023  RH  099%=      5-min Rain = 0
KTA1 111022Z 19008KT 02/02 A2987 RMK A01 T00240023  RH  099%=      5-min Rain = 0
KTA1 111023Z 19007KT 03/02 A2987 RMK A01 T00250024  RH  099%=      5-min Rain = 0
KTA1 111024Z 19008KT 03/02 A2987 RMK A01 T00250024  RH  099%=      5-min Rain = 0
KTA1 111025Z 20007KT 03/03 A2987 RMK A01 T00250025  RH  099%=      5-min Rain = 0
KTA1 111026Z 20007KT 03/03 A2987 RMK A01 T00260025  RH  099%=      5-min Rain = 0
KTA1 111027Z 20007KT 03/03 A2987 RMK A01 T00260026  RH  100%=      5-min Rain = 0
KTA1 111028Z 21007KT 03/03 A2987 RMK A01 T00260025  RH  100%=      5-min Rain = 0
KTA1 111029Z 21007KT 03/03 A2987 RMK A01 T00270026  RH  100%=      5-min Rain = 0
KTA1 111030Z 21007KT 03/03 A2987 RMK A01 T00270026  RH  100%=      5-min Rain = 0
KTA1 111031Z 22006KT 03/03 A2987 RMK A01 T00270026  RH  100%=      5-min Rain = 0
KTA1 111032Z 22006KT 03/03 A2987 RMK A01 T00270026  RH  100%=      5-min Rain = 0
KTA1 111033Z 22005KT 03/03 A2987 RMK A01 T00280027  RH  100%=      5-min Rain = 0
KTA1 111034Z 22006KT 03/03 A2987 RMK A01 T00290028  RH  100%=      5-min Rain = 0
KTA1 111035Z 21006KT 03/03 A2987 RMK A01 T00300029  RH  100%=      5-min Rain = 0
KTA1 111036Z 21006KT 03/03 A2987 RMK A01 T00310030  RH  100%=      5-min Rain = 0
KTA1 111037Z 21006KT 03/03 A2987 RMK A01 T00310030  RH  100%=      5-min Rain = 0
KTA1 111038Z 21005KT 03/03 A2987 RMK A01 T00310031  RH  100%=      5-min Rain = 0
KTA1 111039Z 21005KT 03/03 A2987 RMK A01 T00310031  RH  100%=      5-min Rain = 0
KTA1 111040Z 21005KT 03/03 A2986 RMK A01 T00310031  RH  100%=      5-min Rain = 0
KTA1 111041Z 21005KT 03/03 A2986 RMK A01 T00310030  RH  100%=      5-min Rain = 0
KTA1 111042Z 21004KT 03/03 A2986 RMK A01 T00310030  RH  100%=      5-min Rain = 0
KTA1 111043Z 21004KT 03/03 A2986 RMK A01 T00310030  RH  100%=      5-min Rain = 0
KTA1 111044Z 20004KT 03/03 A2986 RMK A01 T00300030  RH  100%=      5-min Rain = 0
KTA1 111045Z 21003KT 03/03 A2986 RMK A01 T00300030  RH  100%=      5-min Rain = 0
KTA1 111046Z 21003KT 03/03 A2986 RMK A01 T00300030  RH  100%=      5-min Rain = 0
KTA1 111047Z 21003KT 03/03 A2986 RMK A01 T00300030  RH  099%=      5-min Rain = 0
KTA1 111048Z 21003KT 03/03 A2985 RMK A01 T00300029  RH  099%=      5-min Rain = 0
KTA1 111049Z 20003KT 03/03 A2985 RMK A01 T00300029  RH  099%=      5-min Rain = 0
KTA1 111050Z 20004KT 03/03 A2985 RMK A01 T00300029  RH  099%=      5-min Rain = 0
KTA1 111051Z 20004KT 03/03 A2985 RMK A01 T00300029  RH  099%=      5-min Rain = 0
KTA1 111052Z 21003KT 03/03 A2985 RMK A01 T00290028  RH  099%=      5-min Rain = 0
KTA1 111053Z 21003KT 03/03 A2985 RMK A01 T00290028  RH  099%=      5-min Rain = 0
KTA1 111054Z 21004KT 03/03 A2985 RMK A01 T00290028  RH  099%=      5-min Rain = 0
KTA1 111055Z 21004KT 03/03 A2986 RMK A01 T00290028  RH  099%=      5-min Rain = 0
KTA1 111056Z 22004KT 03/03 A2986 RMK A01 T00290028  RH  099%=      5-min Rain = 0
KTA1 111057Z 22004KT 03/03 A2986 RMK A01 T00290028  RH  099%=      5-min Rain = 0
KTA1 111058Z 21004KT 03/03 A2986 RMK A01 T00290029  RH  099%=      5-min Rain = 0
KTA1 111059Z 20005KT 03/03 A2986 RMK A01 T00290028  RH  099%=      5-min Rain = 0
KTA1 111100Z 19006KT 03/03 A2986 RMK A01 T00300029  RH  099%=      5-min Rain = 0
KTA1 111101Z 19005KT 03/03 A2986 RMK A01 T00300029  RH  099%=      5-min Rain = 0
KTA1 111102Z 19004KT 03/03 A2985 RMK A01 T00290028  RH  099%=      5-min Rain = 0
KTA1 111103Z 19004KT 03/03 A2985 RMK A01 T00300029  RH  099%=      5-min Rain = 0
KTA1 111104Z 19003KT 03/03 A2985 RMK A01 T00300029  RH  099%=      5-min Rain = 0
KTA1 111105Z 20004KT 03/03 A2985 RMK A01 T00300029  RH  099%=      5-min Rain = 0
KTA1 111106Z 21004KT 03/03 A2985 RMK A01 T00310030  RH  099%=      5-min Rain = 0
KTA1 111107Z 21004KT 03/03 A2985 RMK A01 T00310030  RH  099%=      5-min Rain = 0
KTA1 111108Z 21005KT 03/03 A2985 RMK A01 T00310030  RH  099%=      5-min Rain = 0
KTA1 111109Z 20005KT 03/03 A2985 RMK A01 T00310030  RH  099%=      5-min Rain = 0
KTA1 111110Z 20005KT 03/03 A2985 RMK A01 T00310030  RH  099%=      5-min Rain = 0
KTA1 111111Z 19005KT 03/03 A2985 RMK A01 T00310030  RH  099%=      5-min Rain = 0
KTA1 111112Z 20005KT 03/03 A2985 RMK A01 T00310030  RH  099%=      5-min Rain = 0
KTA1 111113Z 20004KT 03/03 A2985 RMK A01 T00310029  RH  099%=      5-min Rain = 0
KTA1 111114Z 20004KT 03/03 A2985 RMK A01 T00300029  RH  099%=      5-min Rain = 0
KTA1 111115Z 20004KT 03/03 A2985 RMK A01 T00300029  RH  099%=      5-min Rain = 0
KTA1 111116Z 20004KT 03/03 A2985 RMK A01 T00300029  RH  099%=      5-min Rain = 0
KTA1 111117Z 21004KT 03/03 A2985 RMK A01 T00300028  RH  099%=      5-min Rain = 0
KTA1 111118Z 22004KT 03/03 A2985 RMK A01 T00300028  RH  099%=      5-min Rain = 0
KTA1 111119Z 23004KT 03/03 A2985 RMK A01 T00300028  RH  099%=      5-min Rain = 0
KTA1 111120Z 23004KT 03/03 A2985 RMK A01 T00300028  RH  099%=      5-min Rain = 0
KTA1 111121Z 22004KT 03/03 A2985 RMK A01 T00310029  RH  099%=      5-min Rain = 0
KTA1 111122Z 21004KT 03/03 A2985 RMK A01 T00310029  RH  099%=      5-min Rain = 0
KTA1 111123Z 20004KT 03/03 A2985 RMK A01 T00310029  RH  099%=      5-min Rain = 0
KTA1 111124Z 20004KT 03/03 A2984 RMK A01 T00310030  RH  099%=      5-min Rain = 0
KTA1 111125Z 20004KT 03/03 A2984 RMK A01 T00310029  RH  099%=      5-min Rain = 0
KTA1 111126Z 20004KT 03/03 A2984 RMK A01 T00310029  RH  099%=      5-min Rain = 0
KTA1 111127Z 20004KT 03/03 A2984 RMK A01 T00310029  RH  099%=      5-min Rain = 0
KTA1 111128Z 19004KT 03/03 A2984 RMK A01 T00310029  RH  099%=      5-min Rain = 0
KTA1 111129Z 19004KT 03/03 A2984 RMK A01 T00310029  RH  099%=      5-min Rain = 0
KTA1 111130Z 19005KT 03/03 A2984 RMK A01 T00310029  RH  099%=      5-min Rain = 0
KTA1 111131Z 19005KT 03/03 A2984 RMK A01 T00320030  RH  099%=      5-min Rain = 0
KTA1 111132Z 20005KT 03/03 A2984 RMK A01 T00320030  RH  099%=      5-min Rain = 0
KTA1 111133Z 19005KT 03/03 A2984 RMK A01 T00320030  RH  099%=      5-min Rain = 0
KTA1 111134Z 19005KT 03/03 A2984 RMK A01 T00320030  RH  099%=      5-min Rain = 0
KTA1 111135Z 19005KT 03/03 A2984 RMK A01 T00320030  RH  099%=      5-min Rain = 0
KTA1 111136Z 19005KT 03/03 A2984 RMK A01 T00330031  RH  099%=      5-min Rain = 0
KTA1 111137Z 20004KT 03/03 A2984 RMK A01 T00330031  RH  099%=      5-min Rain = 0
KTA1 111138Z 20004KT 03/03 A2984 RMK A01 T00340031  RH  098%=      5-min Rain = 0
KTA1 111139Z 21004KT 03/03 A2984 RMK A01 T00340031  RH  098%=      5-min Rain = 0
KTA1 111140Z 21004KT 03/03 A2984 RMK A01 T00340032  RH  098%=      5-min Rain = 0
KTA1 111141Z 20005KT 03/03 A2984 RMK A01 T00340032  RH  098%=      5-min Rain = 0
KTA1 111142Z 19005KT 04/03 A2984 RMK A01 T00350032  RH  098%=      5-min Rain = 0
KTA1 111143Z 19005KT 04/03 A2984 RMK A01 T00350032  RH  098%=      5-min Rain = 0
KTA1 111144Z 19005KT 04/03 A2984 RMK A01 T00350033  RH  098%=      5-min Rain = 0
KTA1 111145Z 19005KT 04/03 A2984 RMK A01 T00350032  RH  098%=      5-min Rain = 0
KTA1 111146Z 19005KT 04/03 A2984 RMK A01 T00350032  RH  098%=      5-min Rain = 0
KTA1 111147Z 19004KT 04/03 A2984 RMK A01 T00360032  RH  098%=      5-min Rain = 0
KTA1 111148Z 20005KT 04/03 A2984 RMK A01 T00360033  RH  098%=      5-min Rain = 0
KTA1 111149Z 20004KT 04/03 A2984 RMK A01 T00360032  RH  098%=      5-min Rain = 0
KTA1 111150Z 20004KT 04/03 A2984 RMK A01 T00360033  RH  097%=      5-min Rain = 0
KTA1 111151Z 20005KT 04/03 A2984 RMK A01 T00360032  RH  097%=      5-min Rain = 0
KTA1 111152Z 20005KT 04/03 A2984 RMK A01 T00360032  RH  097%=      5-min Rain = 0
KTA1 111153Z 19005KT 04/03 A2984 RMK A01 T00360032  RH  097%=      5-min Rain = 0
KTA1 111154Z 19005KT 04/03 A2984 RMK A01 T00360032  RH  097%=      5-min Rain = 0
KTA1 111155Z 19005KT 04/03 A2984 RMK A01 T00360032  RH  097%=      5-min Rain = 0
KTA1 111156Z 19005KT 04/03 A2984 RMK A01 T00360032  RH  097%=      5-min Rain = 0
KTA1 111157Z 19005KT 04/03 A2984 RMK A01 T00360032  RH  097%=      5-min Rain = 0
KTA1 111158Z 20004KT 04/03 A2984 RMK A01 T00370033  RH  097%=      5-min Rain = 0
KTA1 111159Z 20004KT 04/03 A2984 RMK A01 T00370032  RH  097%=      5-min Rain = 0
KTA1 111200Z 20004KT 04/03 A2984 RMK A01 T00370033  RH  097%=      5-min Rain = 0
KTA1 111201Z 20005KT 04/03 A2984 RMK A01 T00370033  RH  097%=      5-min Rain = 0
KTA1 111202Z 20005KT 04/03 A2984 RMK A01 T00380033  RH  097%=      5-min Rain = 0
KTA1 111203Z 20005KT 04/03 A2985 RMK A01 T00380033  RH  097%=      5-min Rain = 0
KTA1 111204Z 20005KT 04/03 A2985 RMK A01 T00380033  RH  097%=      5-min Rain = 0
KTA1 111205Z 19005KT 04/03 A2985 RMK A01 T00380033  RH  097%=      5-min Rain = 0
KTA1 111206Z 20005KT 04/03 A2985 RMK A01 T00380033  RH  097%=      5-min Rain = 0
KTA1 111207Z 20005KT 04/03 A2985 RMK A01 T00380033  RH  097%=      5-min Rain = 0
KTA1 111208Z 20004KT 04/03 A2985 RMK A01 T00380033  RH  097%=      5-min Rain = 0
KTA1 111209Z 20005KT 04/03 A2985 RMK A01 T00390033  RH  096%=      5-min Rain = 0
KTA1 111210Z 20005KT 04/03 A2985 RMK A01 T00390034  RH  096%=      5-min Rain = 0
KTA1 111211Z 20005KT 04/03 A2985 RMK A01 T00390034  RH  096%=      5-min Rain = 0
KTA1 111212Z 20005KT 04/03 A2985 RMK A01 T00390034  RH  096%=      5-min Rain = 0
KTA1 111213Z 20004KT 04/04 A2985 RMK A01 T00400035  RH  096%=      5-min Rain = 0
KTA1 111214Z 20005KT 04/04 A2985 RMK A01 T00400035  RH  096%=      5-min Rain = 0
KTA1 111215Z 20004KT 04/04 A2985 RMK A01 T00410035  RH  096%=      5-min Rain = 0
KTA1 111216Z 20005KT 04/04 A2985 RMK A01 T00410036  RH  096%=      5-min Rain = 0
KTA1 111217Z 20005KT 04/04 A2985 RMK A01 T00410036  RH  096%=      5-min Rain = 0
KTA1 111218Z 20006KT 04/04 A2985 RMK A01 T00420036  RH  096%=      5-min Rain = 0
KTA1 111219Z 20005KT 04/04 A2985 RMK A01 T00420036  RH  096%=      5-min Rain = 0
KTA1 111220Z 20005KT 04/04 A2985 RMK A01 T00420036  RH  096%=      5-min Rain = 0
KTA1 111221Z 19006KT 04/04 A2985 RMK A01 T00420036  RH  096%=      5-min Rain = 0
KTA1 111222Z 19006KT 04/04 A2985 RMK A01 T00430036  RH  096%=      5-min Rain = 0
KTA1 111223Z 19007KT 04/04 A2985 RMK A01 T00430037  RH  096%=      5-min Rain = 0
KTA1 111224Z 19007KT 04/04 A2985 RMK A01 T00440037  RH  096%=      5-min Rain = 0
KTA1 111225Z 19007KT 04/04 A2985 RMK A01 T00440037  RH  095%=      5-min Rain = 0
KTA1 111226Z 19006KT 04/04 A2985 RMK A01 T00440037  RH  095%=      5-min Rain = 0
KTA1 111227Z 19006KT 04/04 A2985 RMK A01 T00440037  RH  095%=      5-min Rain = 0
KTA1 111228Z 19006KT 04/04 A2985 RMK A01 T00440037  RH  095%=      5-min Rain = 0
KTA1 111229Z 19007KT 04/04 A2985 RMK A01 T00440037  RH  095%=      5-min Rain = 0
KTA1 111230Z 19007KT 04/04 A2985 RMK A01 T00440037  RH  095%=      5-min Rain = 0
KTA1 111231Z 19006KT 05/04 A2984 RMK A01 T00450038  RH  095%=      5-min Rain = 0
KTA1 111232Z 19006KT 05/04 A2984 RMK A01 T00450038  RH  095%=      5-min Rain = 0
KTA1 111233Z 19006KT 05/04 A2984 RMK A01 T00450038  RH  095%=      5-min Rain = 0
KTA1 111234Z 19005KT 05/04 A2984 RMK A01 T00450038  RH  095%=      5-min Rain = 0
KTA1 111235Z 19006KT 05/04 A2984 RMK A01 T00450038  RH  095%=      5-min Rain = 0
KTA1 111236Z 19006KT 05/04 A2984 RMK A01 T00450038  RH  095%=      5-min Rain = 0
KTA1 111237Z 19007KT 05/04 A2984 RMK A01 T00450038  RH  095%=      5-min Rain = 0
KTA1 111238Z 18007KT 05/04 A2984 RMK A01 T00450038  RH  095%=      5-min Rain = 0
KTA1 111239Z 18007KT 05/04 A2984 RMK A01 T00450038  RH  095%=      5-min Rain = 0
KTA1 111240Z 18007KT 05/04 A2984 RMK A01 T00460039  RH  095%=      5-min Rain = 0
KTA1 111241Z 19007KT 05/04 A2984 RMK A01 T00460039  RH  095%=      5-min Rain = 0
KTA1 111242Z 19007KT 05/04 A2984 RMK A01 T00470039  RH  095%=      5-min Rain = 0
KTA1 111243Z 19007KT 05/04 A2984 RMK A01 T00470040  RH  095%=      5-min Rain = 0
KTA1 111244Z 19007KT 05/04 A2984 RMK A01 T00470040  RH  095%=      5-min Rain = 0
KTA1 111245Z 19006KT 05/04 A2984 RMK A01 T00480040  RH  095%=      5-min Rain = 0
KTA1 111246Z 19006KT 05/04 A2984 RMK A01 T00480040  RH  095%=      5-min Rain = 0
KTA1 111247Z 19006KT 05/04 A2984 RMK A01 T00480040  RH  095%=      5-min Rain = 0
KTA1 111248Z 18006KT 05/04 A2984 RMK A01 T00480040  RH  095%=      5-min Rain = 0
KTA1 111249Z 18007KT 05/04 A2984 RMK A01 T00490041  RH  095%=      5-min Rain = 0
KTA1 111250Z 18006KT 05/04 A2984 RMK A01 T00490041  RH  095%=      5-min Rain = 0
KTA1 111251Z 18006KT 05/04 A2984 RMK A01 T00490041  RH  095%=      5-min Rain = 0
KTA1 111252Z 19007KT 05/04 A2984 RMK A01 T00490041  RH  095%=      5-min Rain = 0
KTA1 111253Z 19006KT 05/04 A2984 RMK A01 T00490041  RH  095%=      5-min Rain = 0
KTA1 111254Z 19006KT 05/04 A2984 RMK A01 T00490041  RH  095%=      5-min Rain = 0
KTA1 111255Z 19006KT 05/04 A2984 RMK A01 T00490042  RH  095%=      5-min Rain = 0
KTA1 111256Z 19006KT 05/04 A2984 RMK A01 T00500042  RH  095%=      5-min Rain = 0
KTA1 111257Z 19007KT 05/04 A2984 RMK A01 T00500042  RH  095%=      5-min Rain = 0
KTA1 111258Z 19006KT 05/04 A2984 RMK A01 T00500042  RH  095%=      5-min Rain = 0
KTA1 111259Z 19006KT 05/04 A2984 RMK A01 T00500042  RH  095%=      5-min Rain = 0
KTA1 111300Z 18006KT 05/04 A2984 RMK A01 T00490042  RH  095%=      5-min Rain = 0
KTA1 111301Z 18007KT 05/04 A2985 RMK A01 T00500042  RH  095%=      5-min Rain = 0
KTA1 111302Z 18007KT 05/04 A2985 RMK A01 T00500042  RH  095%=      5-min Rain = 0
KTA1 111303Z 18007KT 05/04 A2985 RMK A01 T00500042  RH  095%=      5-min Rain = 0
KTA1 111304Z 18007KT 05/04 A2985 RMK A01 T00500043  RH  095%=      5-min Rain = 0
KTA1 111305Z 18007KT 05/04 A2985 RMK A01 T00500043  RH  095%=      5-min Rain = 0
KTA1 111306Z 18007KT 05/04 A2985 RMK A01 T00500043  RH  095%=      5-min Rain = 0
KTA1 111307Z 19006KT 05/04 A2985 RMK A01 T00500043  RH  095%=      5-min Rain = 0
KTA1 111308Z 19007KT 05/04 A2985 RMK A01 T00500043  RH  095%=      5-min Rain = 0
KTA1 111309Z 18007KT 05/04 A2985 RMK A01 T00510043  RH  095%=      5-min Rain = 0
KTA1 111310Z 18007KT 05/04 A2985 RMK A01 T00500043  RH  095%=      5-min Rain = 0
KTA1 111311Z 18007KT 05/04 A2985 RMK A01 T00510044  RH  095%=      5-min Rain = 0
KTA1 111312Z 18007KT 05/04 A2984 RMK A01 T00510044  RH  095%=      5-min Rain = 0
KTA1 111313Z 18006KT 05/04 A2984 RMK A01 T00510044  RH  095%=      5-min Rain = 0
KTA1 111314Z 18006KT 05/04 A2984 RMK A01 T00510044  RH  095%=      5-min Rain = 0
KTA1 111315Z 18006KT 05/04 A2984 RMK A01 T00510044  RH  095%=      5-min Rain = 0
KTA1 111316Z 18006KT 05/04 A2984 RMK A01 T00510044  RH  095%=      5-min Rain = 0
KTA1 111317Z 18007KT 05/05 A2985 RMK A01 T00520045  RH  095%=      5-min Rain = 0
KTA1 111318Z 18007KT 05/05 A2985 RMK A01 T00520045  RH  095%=      5-min Rain = 0
KTA1 111319Z 18007KT 05/05 A2984 RMK A01 T00530046  RH  095%=      5-min Rain = 0
KTA1 111320Z 18006KT 05/05 A2984 RMK A01 T00530046  RH  095%=      5-min Rain = 0
KTA1 111321Z 19006KT 05/05 A2984 RMK A01 T00540046  RH  095%=      5-min Rain = 0
KTA1 111322Z 18007KT 05/05 A2984 RMK A01 T00540046  RH  095%=      5-min Rain = 0
KTA1 111323Z 19008KT 05/05 A2984 RMK A01 T00540047  RH  095%=      5-min Rain = 0
KTA1 111324Z 18007KT 06/05 A2984 RMK A01 T00550047  RH  095%=      5-min Rain = 0
KTA1 111325Z 19006KT 06/05 A2984 RMK A01 T00550047  RH  095%=      5-min Rain = 0
KTA1 111326Z 18006KT 06/05 A2984 RMK A01 T00550047  RH  095%=      5-min Rain = 0
KTA1 111327Z 19006KT 06/05 A2984 RMK A01 T00550047  RH  095%=      5-min Rain = 0
KTA1 111328Z 19007KT 06/05 A2985 RMK A01 T00550047  RH  095%=      5-min Rain = 0
KTA1 111329Z 18006KT 06/05 A2985 RMK A01 T00560047  RH  095%=      5-min Rain = 0
KTA1 111330Z 18007KT 06/05 A2985 RMK A01 T00550047  RH  094%=      5-min Rain = 0
KTA1 111331Z 18007KT 06/05 A2984 RMK A01 T00560047  RH  094%=      5-min Rain = 0
KTA1 111332Z 19007KT 06/05 A2985 RMK A01 T00560048  RH  094%=      5-min Rain = 0
KTA1 111333Z 19007KT 06/05 A2985 RMK A01 T00560048  RH  094%=      5-min Rain = 0
KTA1 111334Z 18007KT 06/05 A2985 RMK A01 T00560048  RH  094%=      5-min Rain = 0
KTA1 111335Z 19007KT 06/05 A2985 RMK A01 T00570048  RH  094%=      5-min Rain = 0
KTA1 111336Z 19007KT 06/05 A2985 RMK A01 T00570048  RH  094%=      5-min Rain = 0
KTA1 111337Z 19007KT 06/05 A2985 RMK A01 T00570048  RH  094%=      5-min Rain = 0
KTA1 111338Z 19006KT 06/05 A2985 RMK A01 T00570048  RH  094%=      5-min Rain = 0
KTA1 111339Z 19007KT 06/05 A2985 RMK A01 T00570049  RH  094%=      5-min Rain = 0
KTA1 111340Z 19008KT 06/05 A2985 RMK A01 T00580049  RH  094%=      5-min Rain = 0
KTA1 111341Z 19008KT 06/05 A2985 RMK A01 T00580050  RH  094%=      5-min Rain = 0
KTA1 111342Z 19008KT 06/05 A2985 RMK A01 T00580050  RH  095%=      5-min Rain = 0
KTA1 111343Z 19007KT 06/05 A2985 RMK A01 T00580050  RH  095%=      5-min Rain = 0
KTA1 111344Z 19008KT 06/05 A2985 RMK A01 T00590050  RH  095%=      5-min Rain = 0
KTA1 111345Z 19006KT 06/05 A2985 RMK A01 T00590051  RH  095%=      5-min Rain = 0
KTA1 111346Z 19007KT 06/05 A2985 RMK A01 T00590051  RH  094%=      5-min Rain = 0
KTA1 111347Z 19007KT 06/05 A2985 RMK A01 T00590051  RH  094%=      5-min Rain = 0
KTA1 111348Z 19007KT 06/05 A2985 RMK A01 T00600052  RH  094%=      5-min Rain = 0
KTA1 111349Z 19006KT 06/05 A2984 RMK A01 T00600052  RH  094%=      5-min Rain = 0
KTA1 111350Z 19006KT 06/05 A2985 RMK A01 T00600052  RH  094%=      5-min Rain = 0
KTA1 111351Z 20007KT 06/05 A2985 RMK A01 T00600052  RH  094%=      5-min Rain = 0
KTA1 111352Z 20007KT 06/05 A2985 RMK A01 T00600052  RH  094%=      5-min Rain = 0
KTA1 111353Z 20006KT 06/05 A2985 RMK A01 T00600052  RH  094%=      5-min Rain = 0
KTA1 111354Z 21007KT 06/05 A2985 RMK A01 T00610053  RH  094%=      5-min Rain = 0
KTA1 111355Z 20007KT 06/05 A2985 RMK A01 T00610053  RH  094%=      5-min Rain = 0
KTA1 111356Z 20006KT 06/05 A2985 RMK A01 T00610053  RH  094%=      5-min Rain = 0
KTA1 111357Z 20006KT 06/05 A2985 RMK A01 T00610052  RH  094%=      5-min Rain = 0
KTA1 111358Z 20006KT 06/05 A2985 RMK A01 T00610052  RH  094%=      5-min Rain = 0
KTA1 111359Z 21006KT 06/05 A2985 RMK A01 T00620053  RH  094%=      5-min Rain = 0
KTA1 111400Z 21006KT 06/05 A2985 RMK A01 T00620053  RH  094%=      5-min Rain = 0
KTA1 111401Z 21007KT 06/05 A2985 RMK A01 T00620053  RH  094%=      5-min Rain = 0
KTA1 111402Z 21006KT 06/05 A2985 RMK A01 T00620053  RH  094%=      5-min Rain = 0
KTA1 111403Z 21007KT 06/05 A2985 RMK A01 T00630053  RH  093%=      5-min Rain = 0
KTA1 111404Z 22007KT 06/05 A2985 RMK A01 T00630053  RH  093%=      5-min Rain = 0
KTA1 111405Z 22007KT 06/05 A2986 RMK A01 T00630053  RH  093%=      5-min Rain = 0
KTA1 111406Z 22007KT 06/05 A2986 RMK A01 T00630053  RH  093%=      5-min Rain = 0
KTA1 111407Z 22008KT 06/05 A2986 RMK A01 T00630053  RH  093%=      5-min Rain = 0
KTA1 111408Z 22007KT 06/05 A2986 RMK A01 T00630053  RH  093%=      5-min Rain = 0
KTA1 111409Z 21007KT 06/05 A2986 RMK A01 T00630053  RH  093%=      5-min Rain = 0
KTA1 111410Z 21006KT 06/05 A2986 RMK A01 T00630053  RH  094%=      5-min Rain = 0
KTA1 111411Z 21006KT 06/05 A2986 RMK A01 T00630054  RH  094%=      5-min Rain = 0
KTA1 111412Z 22006KT 06/05 A2986 RMK A01 T00640054  RH  094%=      5-min Rain = 0
KTA1 111413Z 21006KT 06/05 A2986 RMK A01 T00640054  RH  094%=      5-min Rain = 0
KTA1 111414Z 21006KT 07/06 A2986 RMK A01 T00650055  RH  094%=      5-min Rain = 0
KTA1 111415Z 22005KT 07/06 A2986 RMK A01 T00650055  RH  093%=      5-min Rain = 0
KTA1 111416Z 22005KT 07/06 A2986 RMK A01 T00650055  RH  093%=      5-min Rain = 0
KTA1 111417Z 22005KT 07/06 A2986 RMK A01 T00660056  RH  093%=      5-min Rain = 0
KTA1 111418Z 22005KT 07/06 A2986 RMK A01 T00660055  RH  093%=      5-min Rain = 0
KTA1 111419Z 22005KT 07/06 A2986 RMK A01 T00660055  RH  093%=      5-min Rain = 0
KTA1 111420Z 22005KT 07/06 A2986 RMK A01 T00670056  RH  093%=      5-min Rain = 0
KTA1 111421Z 23006KT 07/06 A2986 RMK A01 T00670056  RH  093%=      5-min Rain = 0
KTA1 111422Z 23005KT 07/06 A2986 RMK A01 T00670056  RH  093%=      5-min Rain = 0
KTA1 111423Z 23005KT 07/06 A2986 RMK A01 T00680056  RH  092%=      5-min Rain = 0
KTA1 111424Z 23005KT 07/06 A2986 RMK A01 T00680056  RH  092%=      5-min Rain = 0
KTA1 111425Z 23005KT 07/06 A2986 RMK A01 T00680056  RH  092%=      5-min Rain = 0
KTA1 111426Z 22005KT 07/06 A2986 RMK A01 T00680056  RH  092%=      5-min Rain = 0
KTA1 111427Z 22005KT 07/06 A2986 RMK A01 T00680056  RH  092%=      5-min Rain = 0
KTA1 111428Z 22005KT 07/06 A2986 RMK A01 T00690057  RH  092%=      5-min Rain = 0
KTA1 111429Z 21005KT 07/06 A2986 RMK A01 T00690057  RH  092%=      5-min Rain = 0
KTA1 111430Z 21005KT 07/06 A2986 RMK A01 T00690057  RH  092%=      5-min Rain = 0
KTA1 111431Z 21005KT 07/06 A2986 RMK A01 T00690057  RH  092%=      5-min Rain = 0
KTA1 111432Z 21005KT 07/06 A2986 RMK A01 T00690057  RH  092%=      5-min Rain = 0
KTA1 111433Z 21005KT 07/06 A2986 RMK A01 T00690057  RH  092%=      5-min Rain = 0
KTA1 111434Z 21004KT 07/06 A2986 RMK A01 T00690057  RH  092%=      5-min Rain = 0
KTA1 111435Z 20005KT 07/06 A2986 RMK A01 T00690057  RH  092%=      5-min Rain = 0
KTA1 111436Z 20005KT 07/06 A2986 RMK A01 T00690057  RH  092%=      5-min Rain = 0
KTA1 111437Z 21005KT 07/06 A2986 RMK A01 T00690058  RH  092%=      5-min Rain = 0
KTA1 111438Z 21005KT 07/06 A2986 RMK A01 T00690057  RH  092%=      5-min Rain = 0
KTA1 111439Z 21005KT 07/06 A2986 RMK A01 T00700058  RH  092%=      5-min Rain = 0
KTA1 111440Z 21005KT 07/06 A2986 RMK A01 T00700058  RH  092%=      5-min Rain = 0
KTA1 111441Z 21005KT 07/06 A2986 RMK A01 T00710058  RH  092%=      5-min Rain = 0
KTA1 111442Z 21006KT 07/06 A2986 RMK A01 T00710058  RH  092%=      5-min Rain = 0
KTA1 111443Z 21006KT 07/06 A2986 RMK A01 T00710058  RH  092%=      5-min Rain = 0
KTA1 111444Z 20006KT 07/06 A2986 RMK A01 T00720059  RH  091%=      5-min Rain = 0
KTA1 111445Z 20006KT 07/06 A2986 RMK A01 T00720059  RH  091%=      5-min Rain = 0
KTA1 111446Z 20006KT 07/06 A2986 RMK A01 T00720059  RH  092%=      5-min Rain = 0
KTA1 111447Z 20006KT 07/06 A2986 RMK A01 T00720059  RH  092%=      5-min Rain = 0
KTA1 111448Z 20006KT 07/06 A2987 RMK A01 T00720060  RH  092%=      5-min Rain = 0
KTA1 111449Z 20006KT 07/06 A2987 RMK A01 T00720060  RH  092%=      5-min Rain = 0
KTA1 111450Z 20005KT 07/06 A2987 RMK A01 T00720059  RH  092%=      5-min Rain = 0
KTA1 111451Z 20006KT 07/06 A2987 RMK A01 T00720060  RH  092%=      5-min Rain = 0
KTA1 111452Z 20005KT 07/06 A2987 RMK A01 T00720060  RH  092%=      5-min Rain = 0
KTA1 111453Z 20006KT 07/06 A2987 RMK A01 T00720060  RH  092%=      5-min Rain = 0
KTA1 111454Z 20006KT 07/06 A2987 RMK A01 T00720060  RH  092%=      5-min Rain = 0
KTA1 111455Z 20006KT 07/06 A2987 RMK A01 T00720061  RH  093%=      5-min Rain = 0
KTA1 111456Z 20006KT 07/06 A2987 RMK A01 T00720061  RH  093%=      5-min Rain = 0
KTA1 111457Z 20006KT 07/06 A2987 RMK A01 T00720061  RH  093%=      5-min Rain = 0
KTA1 111458Z 20006KT 07/06 A2987 RMK A01 T00720061  RH  093%=      5-min Rain = 0
KTA1 111459Z 19006KT 07/06 A2987 RMK A01 T00710062  RH  093%=      5-min Rain = 0
KTA1 111500Z 19006KT 07/06 A2987 RMK A01 T00710062  RH  094%=      5-min Rain = 0
KTA1 111501Z 20006KT 07/06 A2987 RMK A01 T00710062  RH  094%=      5-min Rain = 0
KTA1 111502Z 19006KT 07/06 A2987 RMK A01 T00720063  RH  094%=      5-min Rain = 0
KTA1 111503Z 19006KT 07/06 A2987 RMK A01 T00720063  RH  094%=      5-min Rain = 0
KTA1 111504Z 20007KT 07/06 A2987 RMK A01 T00720064  RH  094%=      5-min Rain = 0
KTA1 111505Z 20007KT 07/06 A2988 RMK A01 T00730064  RH  094%=      5-min Rain = 0
KTA1 111506Z 21008KT 07/07 A2988 RMK A01 T00730065  RH  094%=      5-min Rain = 0
KTA1 111507Z 20007KT 07/07 A2988 RMK A01 T00740066  RH  095%=      5-min Rain = 0
KTA1 111508Z 21008KT 08/07 A2988 RMK A01 T00750067  RH  095%=      5-min Rain = 0
KTA1 111509Z 21007KT 08/07 A2988 RMK A01 T00750067  RH  095%=      5-min Rain = 0
KTA1 111510Z 21007KT 08/07 A2988 RMK A01 T00760068  RH  095%=      5-min Rain = 0
KTA1 111511Z 22008KT 08/07 A2988 RMK A01 T00760068  RH  095%=      5-min Rain = 0
KTA1 111512Z 22008KT 08/07 A2988 RMK A01 T00760068  RH  095%=      5-min Rain = 0.01
KTA1 111513Z 21007KT 08/07 A2988 RMK A01 T00770069  RH  095%=      5-min Rain = 0
KTA1 111514Z 22007KT 08/07 A2988 RMK A01 T00770069  RH  095%=      5-min Rain = 0
KTA1 111515Z 21007KT 08/07 A2988 RMK A01 T00770068  RH  095%=      5-min Rain = 0
KTA1 111516Z 21008KT 08/07 A2988 RMK A01 T00770068  RH  095%=      5-min Rain = 0
KTA1 111517Z 22009KT 08/07 A2988 RMK A01 T00770069  RH  095%=      5-min Rain = 0.01
KTA1 111518Z 21009KT 08/07 A2988 RMK A01 T00770069  RH  094%=      5-min Rain = 0
KTA1 111519Z 21008KT 08/07 A2988 RMK A01 T00780069  RH  094%=      5-min Rain = 0
KTA1 111520Z 21008KT 08/07 A2988 RMK A01 T00780070  RH  094%=      5-min Rain = 0
KTA1 111521Z 22008KT 08/07 A2988 RMK A01 T00780070  RH  094%=      5-min Rain = 0
KTA1 111522Z 21007KT 08/07 A2988 RMK A01 T00780070  RH  094%=      5-min Rain = 0
KTA1 111523Z 21007KT 08/07 A2988 RMK A01 T00790071  RH  095%=      5-min Rain = 0
KTA1 111524Z 22007KT 08/07 A2988 RMK A01 T00790071  RH  095%=      5-min Rain = 0
KTA1 111525Z 22007KT 08/07 A2988 RMK A01 T00790071  RH  095%=      5-min Rain = 0
KTA1 111526Z 22007KT 08/07 A2988 RMK A01 T00790072  RH  095%=      5-min Rain = 0
KTA1 111527Z 22009KT 08/07 A2988 RMK A01 T00790071  RH  095%=      5-min Rain = 0
KTA1 111528Z 23008KT 08/07 A2988 RMK A01 T00800072  RH  094%=      5-min Rain = 0
KTA1 111529Z 22007KT 08/07 A2988 RMK A01 T00810072  RH  094%=      5-min Rain = 0
KTA1 111530Z 23008KT 08/07 A2988 RMK A01 T00810072  RH  094%=      5-min Rain = 0
KTA1 111531Z 23007KT 08/07 A2988 RMK A01 T00810072  RH  094%=      5-min Rain = 0
KTA1 111532Z 24007KT 08/07 A2988 RMK A01 T00820072  RH  094%=      5-min Rain = 0
KTA1 111533Z 23007KT 08/07 A2988 RMK A01 T00810072  RH  094%=      5-min Rain = 0
KTA1 111534Z 23007KT 08/07 A2988 RMK A01 T00820073  RH  094%=      5-min Rain = 0
KTA1 111535Z 23007KT 08/07 A2988 RMK A01 T00820073  RH  094%=      5-min Rain = 0
KTA1 111536Z 23006KT 08/07 A2988 RMK A01 T00820073  RH  094%=      5-min Rain = 0
KTA1 111537Z 24007KT 08/07 A2988 RMK A01 T00820073  RH  094%=      5-min Rain = 0
KTA1 111538Z 24007KT 08/07 A2988 RMK A01 T00820073  RH  094%=      5-min Rain = 0
KTA1 111539Z 24007KT 08/07 A2988 RMK A01 T00820073  RH  094%=      5-min Rain = 0
KTA1 111540Z 24007KT 08/07 A2988 RMK A01 T00820073  RH  094%=      5-min Rain = 0
KTA1 111541Z 23006KT 08/07 A2988 RMK A01 T00820073  RH  094%=      5-min Rain = 0
KTA1 111542Z 23008KT 08/07 A2988 RMK A01 T00830073  RH  094%=      5-min Rain = 0
KTA1 111543Z 23008KT 08/07 A2988 RMK A01 T00830073  RH  094%=      5-min Rain = 0
KTA1 111544Z 22008KT 08/07 A2988 RMK A01 T00830073  RH  094%=      5-min Rain = 0
KTA1 111545Z 23007KT 08/07 A2988 RMK A01 T00830073  RH  093%=      5-min Rain = 0
KTA1 111546Z 23006KT 08/07 A2988 RMK A01 T00830073  RH  093%=      5-min Rain = 0
KTA1 111547Z 23007KT 08/07 A2988 RMK A01 T00830073  RH  093%=      5-min Rain = 0
KTA1 111548Z 23007KT 08/07 A2988 RMK A01 T00830073  RH  093%=      5-min Rain = 0
KTA1 111549Z 23006KT 08/07 A2988 RMK A01 T00830074  RH  093%=      5-min Rain = 0
KTA1 111550Z 23007KT 08/07 A2988 RMK A01 T00830073  RH  094%=      5-min Rain = 0
KTA1 111551Z 22007KT 08/07 A2987 RMK A01 T00830074  RH  094%=      5-min Rain = 0
KTA1 111552Z 22007KT 08/07 A2987 RMK A01 T00830074  RH  094%=      5-min Rain = 0
KTA1 111553Z 23007KT 08/07 A2988 RMK A01 T00840074  RH  094%=      5-min Rain = 0
KTA1 111554Z 23007KT 08/07 A2988 RMK A01 T00840074  RH  094%=      5-min Rain = 0
KTA1 111555Z 22007KT 08/07 A2988 RMK A01 T00840074  RH  093%=      5-min Rain = 0
KTA1 111556Z 22007KT 09/08 A2988 RMK A01 T00850075  RH  093%=      5-min Rain = 0
KTA1 111557Z 22006KT 09/08 A2988 RMK A01 T00850075  RH  093%=      5-min Rain = 0
KTA1 111558Z 21006KT 09/08 A2987 RMK A01 T00850075  RH  093%=      5-min Rain = 0
KTA1 111559Z 21006KT 09/08 A2988 RMK A01 T00860075  RH  093%=      5-min Rain = 0.01
KTA1 111600Z 21007KT 09/08 A2988 RMK A01 T00860075  RH  093%=      5-min Rain = 0
KTA1 111601Z 22007KT 09/08 A2988 RMK A01 T00860076  RH  093%=      5-min Rain = 0
KTA1 111602Z 22008KT 09/08 A2988 RMK A01 T00860076  RH  094%=      5-min Rain = 0
KTA1 111603Z 22007KT 09/08 A2987 RMK A01 T00860076  RH  093%=      5-min Rain = 0
KTA1 111604Z 22007KT 09/08 A2987 RMK A01 T00870077  RH  093%=      5-min Rain = 0
KTA1 111605Z 22007KT 09/08 A2987 RMK A01 T00870077  RH  093%=      5-min Rain = 0
KTA1 111606Z 22007KT 09/08 A2987 RMK A01 T00870077  RH  093%=      5-min Rain = 0
KTA1 111607Z 22006KT 09/08 A2987 RMK A01 T00870077  RH  093%=      5-min Rain = 0
KTA1 111608Z 22005KT 09/08 A2987 RMK A01 T00880077  RH  093%=      5-min Rain = 0
KTA1 111609Z 22006KT 09/08 A2987 RMK A01 T00880078  RH  093%=      5-min Rain = 0
KTA1 111610Z 21005KT 09/08 A2987 RMK A01 T00880078  RH  094%=      5-min Rain = 0
KTA1 111611Z 21006KT 09/08 A2987 RMK A01 T00880079  RH  094%=      5-min Rain = 0
KTA1 111612Z 21006KT 09/08 A2987 RMK A01 T00880079  RH  094%=      5-min Rain = 0
KTA1 111613Z 20005KT 09/08 A2987 RMK A01 T00890079  RH  094%=      5-min Rain = 0
KTA1 111614Z 20005KT 09/08 A2987 RMK A01 T00890079  RH  094%=      5-min Rain = 0
KTA1 111615Z 20005KT 09/08 A2987 RMK A01 T00890079  RH  094%=      5-min Rain = 0
KTA1 111616Z 20006KT 09/08 A2987 RMK A01 T00890079  RH  093%=      5-min Rain = 0
KTA1 111617Z 20006KT 09/08 A2987 RMK A01 T00900079  RH  093%=      5-min Rain = 0
KTA1 111618Z 21006KT 09/08 A2987 RMK A01 T00890079  RH  093%=      5-min Rain = 0
KTA1 111619Z 21005KT 09/08 A2987 RMK A01 T00900079  RH  093%=      5-min Rain = 0
KTA1 111620Z 20005KT 09/08 A2987 RMK A01 T00890079  RH  093%=      5-min Rain = 0
KTA1 111621Z 20005KT 09/08 A2987 RMK A01 T00890079  RH  094%=      5-min Rain = 0
KTA1 111622Z 20006KT 09/08 A2987 RMK A01 T00890080  RH  094%=      5-min Rain = 0
KTA1 111623Z 20005KT 09/08 A2987 RMK A01 T00890080  RH  094%=      5-min Rain = 0
KTA1 111624Z 19005KT 09/08 A2987 RMK A01 T00890080  RH  094%=      5-min Rain = 0
KTA1 111625Z 19005KT 09/08 A2987 RMK A01 T00890081  RH  094%=      5-min Rain = 0
KTA1 111626Z 20005KT 09/08 A2987 RMK A01 T00890081  RH  094%=      5-min Rain = 0
KTA1 111627Z 19005KT 09/08 A2987 RMK A01 T00900081  RH  094%=      5-min Rain = 0
KTA1 111628Z 20005KT 09/08 A2987 RMK A01 T00900082  RH  094%=      5-min Rain = 0
KTA1 111629Z 19005KT 09/08 A2987 RMK A01 T00910082  RH  094%=      5-min Rain = 0
KTA1 111630Z 19005KT 09/08 A2986 RMK A01 T00900081  RH  094%=      5-min Rain = 0
KTA1 111631Z 19006KT 09/08 A2986 RMK A01 T00910081  RH  094%=      5-min Rain = 0
KTA1 111632Z 19006KT 09/08 A2986 RMK A01 T00910081  RH  094%=      5-min Rain = 0
KTA1 111633Z 19007KT 09/08 A2986 RMK A01 T00910081  RH  094%=      5-min Rain = 0
KTA1 111634Z 19006KT 09/08 A2986 RMK A01 T00910081  RH  093%=      5-min Rain = 0
KTA1 111635Z 19007KT 09/08 A2986 RMK A01 T00920081  RH  093%=      5-min Rain = 0
KTA1 111636Z 19007KT 09/08 A2986 RMK A01 T00920081  RH  093%=      5-min Rain = 0
KTA1 111637Z 19006KT 09/08 A2986 RMK A01 T00920081  RH  093%=      5-min Rain = 0
KTA1 111638Z 19007KT 09/08 A2986 RMK A01 T00930081  RH  093%=      5-min Rain = 0
KTA1 111639Z 19006KT 09/08 A2986 RMK A01 T00930081  RH  093%=      5-min Rain = 0
KTA1 111640Z 19006KT 09/08 A2986 RMK A01 T00930082  RH  093%=      5-min Rain = 0
KTA1 111641Z 19005KT 09/08 A2986 RMK A01 T00930082  RH  093%=      5-min Rain = 0
KTA1 111642Z 19006KT 09/08 A2986 RMK A01 T00930082  RH  093%=      5-min Rain = 0
KTA1 111643Z 18005KT 09/08 A2986 RMK A01 T00930082  RH  093%=      5-min Rain = 0
KTA1 111644Z 19006KT 09/08 A2986 RMK A01 T00930083  RH  093%=      5-min Rain = 0
KTA1 111645Z 19006KT 09/08 A2986 RMK A01 T00930083  RH  093%=      5-min Rain = 0
KTA1 111646Z 19006KT 09/08 A2986 RMK A01 T00940083  RH  093%=      5-min Rain = 0
KTA1 111647Z 19005KT 09/08 A2986 RMK A01 T00940083  RH  093%=      5-min Rain = 0
KTA1 111648Z 19007KT 09/08 A2986 RMK A01 T00940083  RH  093%=      5-min Rain = 0
KTA1 111649Z 19006KT 09/08 A2986 RMK A01 T00940083  RH  093%=      5-min Rain = 0
KTA1 111650Z 18005KT 09/08 A2986 RMK A01 T00940083  RH  093%=      5-min Rain = 0
KTA1 111651Z 19006KT 09/08 A2986 RMK A01 T00940083  RH  093%=      5-min Rain = 0
KTA1 111652Z 18005KT 09/08 A2986 RMK A01 T00940083  RH  093%=      5-min Rain = 0
KTA1 111653Z 19005KT 09/08 A2986 RMK A01 T00940084  RH  093%=      5-min Rain = 0
KTA1 111654Z 19005KT 09/08 A2986 RMK A01 T00940084  RH  093%=      5-min Rain = 0
KTA1 111655Z 19005KT 09/08 A2986 RMK A01 T00940084  RH  094%=      5-min Rain = 0
KTA1 111656Z 19006KT 09/08 A2986 RMK A01 T00940084  RH  094%=      5-min Rain = 0
KTA1 111657Z 19005KT 09/08 A2986 RMK A01 T00940084  RH  094%=      5-min Rain = 0
KTA1 111658Z 19005KT 09/08 A2986 RMK A01 T00940084  RH  094%=      5-min Rain = 0
KTA1 111659Z 19005KT 09/09 A2986 RMK A01 T00940085  RH  094%=      5-min Rain = 0
KTA1 111700Z 20004KT 10/09 A2986 RMK A01 T00950085  RH  094%=      5-min Rain = 0
KTA1 111701Z 19006KT 09/09 A2986 RMK A01 T00940086  RH  094%=      5-min Rain = 0
KTA1 111702Z 19005KT 09/09 A2986 RMK A01 T00940086  RH  094%=      5-min Rain = 0
KTA1 111703Z 19005KT 10/09 A2985 RMK A01 T00950086  RH  094%=      5-min Rain = 0
KTA1 111704Z 20005KT 10/09 A2985 RMK A01 T00950086  RH  094%=      5-min Rain = 0
KTA1 111705Z 20005KT 10/09 A2985 RMK A01 T00950086  RH  094%=      5-min Rain = 0
KTA1 111706Z 20006KT 10/09 A2985 RMK A01 T00960086  RH  094%=      5-min Rain = 0
KTA1 111707Z 20006KT 10/09 A2985 RMK A01 T00960086  RH  093%=      5-min Rain = 0
KTA1 111708Z 19005KT 10/09 A2985 RMK A01 T00960086  RH  093%=      5-min Rain = 0
KTA1 111709Z 19005KT 10/09 A2985 RMK A01 T00970087  RH  093%=      5-min Rain = 0
KTA1 111710Z 19005KT 10/09 A2985 RMK A01 T00970087  RH  093%=      5-min Rain = 0
KTA1 111711Z 19005KT 10/09 A2985 RMK A01 T00970087  RH  094%=      5-min Rain = 0
KTA1 111712Z 19006KT 10/09 A2985 RMK A01 T00970087  RH  093%=      5-min Rain = 0
KTA1 111713Z 19005KT 10/09 A2985 RMK A01 T00970086  RH  093%=      5-min Rain = 0
KTA1 111714Z 20006KT 10/09 A2985 RMK A01 T00970087  RH  093%=      5-min Rain = 0
KTA1 111715Z 19006KT 10/09 A2985 RMK A01 T00980087  RH  093%=      5-min Rain = 0
KTA1 111716Z 19005KT 10/09 A2985 RMK A01 T00970087  RH  093%=      5-min Rain = 0
KTA1 111717Z 19005KT 10/09 A2985 RMK A01 T00980087  RH  093%=      5-min Rain = 0
KTA1 111718Z 19006KT 10/09 A2985 RMK A01 T00980088  RH  093%=      5-min Rain = 0
KTA1 111719Z 19007KT 10/09 A2985 RMK A01 T00980087  RH  093%=      5-min Rain = 0
KTA1 111720Z 19006KT 10/09 A2985 RMK A01 T00980087  RH  093%=      5-min Rain = 0
KTA1 111721Z 19006KT 10/09 A2985 RMK A01 T00980088  RH  093%=      5-min Rain = 0
KTA1 111722Z 19006KT 10/09 A2984 RMK A01 T00990088  RH  093%=      5-min Rain = 0
KTA1 111723Z 18007KT 10/09 A2984 RMK A01 T00990088  RH  093%=      5-min Rain = 0
KTA1 111724Z 19006KT 10/09 A2984 RMK A01 T00990088  RH  093%=      5-min Rain = 0
KTA1 111725Z 19006KT 10/09 A2984 RMK A01 T00990088  RH  093%=      5-min Rain = 0
KTA1 111726Z 19006KT 10/09 A2984 RMK A01 T00990089  RH  093%=      5-min Rain = 0
KTA1 111727Z 19007KT 10/09 A2984 RMK A01 T01000089  RH  093%=      5-min Rain = 0
KTA1 111728Z 19007KT 10/09 A2984 RMK A01 T00990089  RH  093%=      5-min Rain = 0
KTA1 111729Z 19006KT 10/09 A2984 RMK A01 T01000090  RH  093%=      5-min Rain = 0
KTA1 111730Z 19008KT 10/09 A2984 RMK A01 T01000090  RH  093%=      5-min Rain = 0
KTA1 111731Z 19008KT 10/09 A2984 RMK A01 T01000090  RH  093%=      5-min Rain = 0
KTA1 111732Z 19008KT 10/09 A2984 RMK A01 T01010090  RH  093%=      5-min Rain = 0
KTA1 111733Z 19006KT 10/09 A2984 RMK A01 T01010090  RH  093%=      5-min Rain = 0
KTA1 111734Z 20007KT 10/09 A2984 RMK A01 T01010091  RH  093%=      5-min Rain = 0
KTA1 111735Z 19007KT 10/09 A2984 RMK A01 T01010091  RH  093%=      5-min Rain = 0
KTA1 111736Z 19008KT 10/09 A2984 RMK A01 T01020091  RH  093%=      5-min Rain = 0
KTA1 111737Z 19007KT 10/09 A2984 RMK A01 T01020091  RH  093%=      5-min Rain = 0
KTA1 111738Z 20007KT 10/09 A2984 RMK A01 T01020091  RH  093%=      5-min Rain = 0
KTA1 111739Z 19008KT 10/09 A2984 RMK A01 T01030091  RH  093%=      5-min Rain = 0
KTA1 111740Z 19008KT 10/09 A2984 RMK A01 T01030091  RH  092%=      5-min Rain = 0
KTA1 111741Z 19007KT 10/09 A2984 RMK A01 T01030092  RH  092%=      5-min Rain = 0
KTA1 111742Z 19009KT 10/09 A2983 RMK A01 T01040092  RH  092%=      5-min Rain = 0
KTA1 111743Z 20008KT 10/09 A2983 RMK A01 T01040091  RH  092%=      5-min Rain = 0
KTA1 111744Z 20008KT 10/09 A2983 RMK A01 T01040091  RH  092%=      5-min Rain = 0
KTA1 111745Z 20008KT 11/09 A2983 RMK A01 T01050092  RH  092%=      5-min Rain = 0
KTA1 111746Z 20010KT 11/09 A2983 RMK A01 T01050091  RH  091%=      5-min Rain = 0
KTA1 111747Z 20010KT 11/09 A2983 RMK A01 T01060090  RH  090%=      5-min Rain = 0
KTA1 111748Z 20008KT 11/09 A2983 RMK A01 T01060090  RH  090%=      5-min Rain = 0
KTA1 111749Z 19007KT 11/09 A2983 RMK A01 T01060091  RH  090%=      5-min Rain = 0
KTA1 111750Z 19007KT 11/09 A2983 RMK A01 T01060092  RH  091%=      5-min Rain = 0
KTA1 111751Z 19007KT 11/09 A2983 RMK A01 T01060092  RH  091%=      5-min Rain = 0
KTA1 111752Z 19008KT 11/09 A2983 RMK A01 T01060093  RH  091%=      5-min Rain = 0
KTA1 111753Z 19007KT 11/09 A2983 RMK A01 T01060093  RH  091%=      5-min Rain = 0
KTA1 111754Z 19007KT 11/09 A2983 RMK A01 T01060093  RH  091%=      5-min Rain = 0
KTA1 111755Z 19007KT 11/09 A2983 RMK A01 T01060093  RH  092%=      5-min Rain = 0
KTA1 111756Z 19007KT 11/09 A2983 RMK A01 T01060093  RH  092%=      5-min Rain = 0
KTA1 111757Z 19008KT 11/09 A2983 RMK A01 T01060093  RH  092%=      5-min Rain = 0
KTA1 111758Z 19008KT 11/09 A2982 RMK A01 T01070094  RH  091%=      5-min Rain = 0
KTA1 111759Z 19008KT 11/09 A2982 RMK A01 T01070094  RH  091%=      5-min Rain = 0
KTA1 111800Z 19008KT 11/09 A2982 RMK A01 T01070093  RH  091%=      5-min Rain = 0
KTA1 111801Z 19009KT 11/09 A2982 RMK A01 T01070093  RH  091%=      5-min Rain = 0
KTA1 111802Z 19010KT 11/09 A2982 RMK A01 T01080092  RH  090%=      5-min Rain = 0
KTA1 111803Z 19009KT 11/09 A2982 RMK A01 T01080092  RH  090%=      5-min Rain = 0
KTA1 111804Z 19009KT 11/09 A2982 RMK A01 T01090093  RH  090%=      5-min Rain = 0
KTA1 111805Z 20008KT 11/09 A2982 RMK A01 T01090094  RH  090%=      5-min Rain = 0
KTA1 111806Z 20008G13KT 11/09 A2982 RMK A01 T01100094  RH  090%=      5-min Rain = 0
KTA1 111807Z 20013KT 11/09 A2982 RMK A01 T01100093  RH  089%=      5-min Rain = 0
KTA1 111808Z 20011KT 11/09 A2982 RMK A01 T01120092  RH  088%=      5-min Rain = 0
KTA1 111809Z 20010KT 11/09 A2982 RMK A01 T01130093  RH  087%=      5-min Rain = 0
KTA1 111810Z 20012KT 11/09 A2981 RMK A01 T01140092  RH  087%=      5-min Rain = 0
KTA1 111811Z 20010KT 11/09 A2981 RMK A01 T01140092  RH  086%=      5-min Rain = 0
KTA1 111812Z 21010KT 12/09 A2981 RMK A01 T01150093  RH  086%=      5-min Rain = 0
KTA1 111813Z 21011KT 12/09 A2981 RMK A01 T01150092  RH  086%=      5-min Rain = 0
KTA1 111814Z 21012KT 12/09 A2981 RMK A01 T01160092  RH  085%=      5-min Rain = 0
KTA1 111815Z 21013KT 12/09 A2981 RMK A01 T01170091  RH  085%=      5-min Rain = 0
KTA1 111816Z 21013KT 12/09 A2981 RMK A01 T01170091  RH  084%=      5-min Rain = 0
KTA1 111817Z 20012KT 12/09 A2981 RMK A01 T01180091  RH  084%=      5-min Rain = 0
KTA1 111818Z 20013KT 12/09 A298 RMK A01 T01180092  RH  084%=      5-min Rain = 0
KTA1 111819Z 20013KT 12/09 A298 RMK A01 T01190091  RH  083%=      5-min Rain = 0
KTA1 111820Z 20014KT 12/09 A298 RMK A01 T01190091  RH  083%=      5-min Rain = 0
KTA1 111821Z 19012KT 12/09 A2979 RMK A01 T01200092  RH  083%=      5-min Rain = 0
KTA1 111822Z 19013KT 12/09 A2979 RMK A01 T01200091  RH  083%=      5-min Rain = 0
KTA1 111823Z 19011KT 12/09 A2978 RMK A01 T01200091  RH  082%=      5-min Rain = 0
KTA1 111824Z 20012KT 12/09 A2979 RMK A01 T01200091  RH  082%=      5-min Rain = 0
KTA1 111825Z 20011KT 12/09 A2979 RMK A01 T01210091  RH  082%=      5-min Rain = 0
KTA1 111826Z 20013KT 12/09 A2979 RMK A01 T01220091  RH  082%=      5-min Rain = 0
KTA1 111827Z 21013KT 12/09 A2979 RMK A01 T01220091  RH  081%=      5-min Rain = 0
KTA1 111828Z 21013KT 12/09 A2979 RMK A01 T01220091  RH  081%=      5-min Rain = 0
KTA1 111829Z 21012KT 12/09 A2979 RMK A01 T01230091  RH  081%=      5-min Rain = 0
KTA1 111830Z 21011KT 12/09 A2979 RMK A01 T01230091  RH  081%=      5-min Rain = 0
KTA1 111831Z 21010KT 12/09 A2979 RMK A01 T01230091  RH  081%=      5-min Rain = 0
KTA1 111832Z 21011KT 12/09 A2979 RMK A01 T01230091  RH  081%=      5-min Rain = 0
KTA1 111833Z 21011KT 12/09 A2978 RMK A01 T01230091  RH  081%=      5-min Rain = 0
KTA1 111834Z 21010KT 12/09 A2978 RMK A01 T01240091  RH  081%=      5-min Rain = 0
KTA1 111835Z 21011KT 12/09 A2978 RMK A01 T01240092  RH  081%=      5-min Rain = 0
KTA1 111836Z 21012KT 12/09 A2979 RMK A01 T01240092  RH  081%=      5-min Rain = 0
KTA1 111837Z 21012KT 12/09 A2979 RMK A01 T01240091  RH  080%=      5-min Rain = 0
KTA1 111838Z 21012KT 13/09 A2978 RMK A01 T01250092  RH  080%=      5-min Rain = 0
KTA1 111839Z 21013KT 13/09 A2978 RMK A01 T01250092  RH  080%=      5-min Rain = 0
KTA1 111840Z 21013KT 13/09 A2978 RMK A01 T01250092  RH  080%=      5-min Rain = 0
KTA1 111841Z 21013KT 13/09 A2978 RMK A01 T01250090  RH  079%=      5-min Rain = 0
KTA1 111842Z 21014KT 13/09 A2978 RMK A01 T01250091  RH  080%=      5-min Rain = 0
KTA1 111843Z 21012KT 13/09 A2978 RMK A01 T01250091  RH  080%=      5-min Rain = 0
KTA1 111844Z 21014KT 13/09 A2978 RMK A01 T01250091  RH  079%=      5-min Rain = 0
KTA1 111845Z 21013KT 13/09 A2978 RMK A01 T01250090  RH  079%=      5-min Rain = 0
KTA1 111846Z 20013KT 13/09 A2978 RMK A01 T01250090  RH  079%=      5-min Rain = 0
KTA1 111847Z 21013KT 13/09 A2978 RMK A01 T01250090  RH  079%=      5-min Rain = 0
KTA1 111848Z 21013KT 13/09 A2978 RMK A01 T01260090  RH  079%=      5-min Rain = 0
KTA1 111849Z 21014KT 13/09 A2978 RMK A01 T01260090  RH  079%=      5-min Rain = 0
KTA1 111850Z 21013KT 13/09 A2978 RMK A01 T01250090  RH  079%=      5-min Rain = 0
KTA1 111851Z 21014KT 13/09 A2978 RMK A01 T01250090  RH  079%=      5-min Rain = 0
KTA1 111852Z 21016KT 13/09 A2978 RMK A01 T01250089  RH  078%=      5-min Rain = 0
KTA1 111853Z 21013KT 13/09 A2978 RMK A01 T01260089  RH  078%=      5-min Rain = 0
KTA1 111854Z 21012KT 13/09 A2978 RMK A01 T01260090  RH  078%=      5-min Rain = 0
KTA1 111855Z 21013G19KT 13/09 A2978 RMK A01 T01270090  RH  078%=      5-min Rain = 0
KTA1 111856Z 21016KT 13/09 A2978 RMK A01 T01260088  RH  077%=      5-min Rain = 0
KTA1 111857Z 21013KT 13/09 A2978 RMK A01 T01270087  RH  076%=      5-min Rain = 0
KTA1 111858Z 21013KT 13/09 A2978 RMK A01 T01270088  RH  077%=      5-min Rain = 0
KTA1 111859Z 21013KT 13/09 A2978 RMK A01 T01270089  RH  077%=      5-min Rain = 0
KTA1 111900Z 22014KT 13/09 A2978 RMK A01 T01270088  RH  077%=      5-min Rain = 0
KTA1 111901Z 21014KT 13/09 A2978 RMK A01 T01270087  RH  076%=      5-min Rain = 0
KTA1 111902Z 21012KT 13/09 A2977 RMK A01 T01270088  RH  077%=      5-min Rain = 0
KTA1 111903Z 21012KT 13/09 A2977 RMK A01 T01270089  RH  078%=      5-min Rain = 0
KTA1 111904Z 21011KT 13/09 A2977 RMK A01 T01270090  RH  078%=      5-min Rain = 0
KTA1 111905Z 21014KT 13/09 A2977 RMK A01 T01270090  RH  078%=      5-min Rain = 0
KTA1 111906Z 22014KT 13/09 A2977 RMK A01 T01270088  RH  077%=      5-min Rain = 0
KTA1 111907Z 21015KT 13/09 A2977 RMK A01 T01280088  RH  077%=      5-min Rain = 0
KTA1 111908Z 22011KT 13/09 A2977 RMK A01 T01280089  RH  077%=      5-min Rain = 0
KTA1 111909Z 21013KT 13/09 A2977 RMK A01 T01280091  RH  078%=      5-min Rain = 0
KTA1 111910Z 21015KT 13/09 A2977 RMK A01 T01280088  RH  077%=      5-min Rain = 0
KTA1 111911Z 22013KT 13/09 A2977 RMK A01 T01280088  RH  077%=      5-min Rain = 0
KTA1 111912Z 21013G18KT 13/09 A2977 RMK A01 T01280088  RH  077%=      5-min Rain = 0
KTA1 111913Z 21015KT 13/09 A2976 RMK A01 T01280088  RH  077%=      5-min Rain = 0
KTA1 111914Z 21016KT 13/09 A2976 RMK A01 T01280087  RH  076%=      5-min Rain = 0
KTA1 111915Z 21013KT 13/09 A2977 RMK A01 T01280088  RH  077%=      5-min Rain = 0
KTA1 111916Z 21013G19KT 13/09 A2977 RMK A01 T01280089  RH  077%=      5-min Rain = 0
KTA1 111917Z 21014KT 13/09 A2976 RMK A01 T01280088  RH  077%=      5-min Rain = 0
KTA1 111918Z 21015KT 13/09 A2976 RMK A01 T01280088  RH  077%=      5-min Rain = 0
KTA1 111919Z 21015KT 13/09 A2976 RMK A01 T01280087  RH  076%=      5-min Rain = 0
KTA1 111920Z 21016KT 13/09 A2976 RMK A01 T01280088  RH  076%=      5-min Rain = 0
KTA1 111921Z 21016KT 13/09 A2976 RMK A01 T01280088  RH  077%=      5-min Rain = 0
KTA1 111922Z 21015KT 13/09 A2976 RMK A01 T01280088  RH  077%=      5-min Rain = 0
KTA1 111923Z 22015KT 13/09 A2976 RMK A01 T01280088  RH  077%=      5-min Rain = 0
KTA1 111924Z 21014KT 13/09 A2976 RMK A01 T01280088  RH  077%=      5-min Rain = 0
KTA1 111925Z 21014KT 13/09 A2976 RMK A01 T01280088  RH  077%=      5-min Rain = 0
KTA1 111926Z 21018KT 13/09 A2976 RMK A01 T01280087  RH  076%=      5-min Rain = 0
KTA1 111927Z 21015KT 13/09 A2976 RMK A01 T01280086  RH  075%=      5-min Rain = 0
KTA1 111928Z 22015KT 13/09 A2975 RMK A01 T01280087  RH  076%=      5-min Rain = 0
KTA1 111929Z 22015KT 13/09 A2976 RMK A01 T01280086  RH  076%=      5-min Rain = 0
KTA1 111930Z 22014KT 13/09 A2976 RMK A01 T01280087  RH  076%=      5-min Rain = 0
KTA1 111931Z 22012KT 13/09 A2976 RMK A01 T01290088  RH  076%=      5-min Rain = 0
KTA1 111932Z 22012KT 13/09 A2976 RMK A01 T01280089  RH  077%=      5-min Rain = 0
KTA1 111933Z 22013KT 13/09 A2976 RMK A01 T01280089  RH  077%=      5-min Rain = 0
KTA1 111934Z 22014KT 13/09 A2975 RMK A01 T01280088  RH  076%=      5-min Rain = 0
KTA1 111935Z 22014KT 13/09 A2975 RMK A01 T01280087  RH  076%=      5-min Rain = 0
KTA1 111936Z 22015KT 13/09 A2976 RMK A01 T01280087  RH  076%=      5-min Rain = 0
KTA1 111937Z 22014KT 13/09 A2976 RMK A01 T01280085  RH  075%=      5-min Rain = 0
KTA1 111938Z 22014KT 13/09 A2976 RMK A01 T01280085  RH  075%=      5-min Rain = 0
KTA1 111939Z 22014KT 13/09 A2975 RMK A01 T01280085  RH  075%=      5-min Rain = 0
KTA1 111940Z 22015KT 13/09 A2975 RMK A01 T01280085  RH  075%=      5-min Rain = 0
KTA1 111941Z 22015KT 13/09 A2975 RMK A01 T01280085  RH  075%=      5-min Rain = 0
KTA1 111942Z 22012KT 13/09 A2975 RMK A01 T01280085  RH  075%=      5-min Rain = 0
KTA1 111943Z 22015KT 13/09 A2975 RMK A01 T01280085  RH  075%=      5-min Rain = 0
KTA1 111944Z 22017G22KT 13/08 A2975 RMK A01 T01290084  RH  074%=      5-min Rain = 0
KTA1 111945Z 22014KT 13/08 A2975 RMK A01 T01290083  RH  074%=      5-min Rain = 0
KTA1 111946Z 22014KT 13/08 A2975 RMK A01 T01290083  RH  074%=      5-min Rain = 0
KTA1 111947Z 22015KT 13/08 A2975 RMK A01 T01290084  RH  074%=      5-min Rain = 0
KTA1 111948Z 22014KT 13/08 A2975 RMK A01 T01290084  RH  074%=      5-min Rain = 0
KTA1 111949Z 22014KT 13/08 A2975 RMK A01 T01290084  RH  074%=      5-min Rain = 0
KTA1 111950Z 22014KT 13/08 A2974 RMK A01 T01280084  RH  074%=      5-min Rain = 0
KTA1 111951Z 22014KT 13/08 A2974 RMK A01 T01280084  RH  075%=      5-min Rain = 0
KTA1 111952Z 22015KT 13/08 A2974 RMK A01 T01280084  RH  074%=      5-min Rain = 0
KTA1 111953Z 22014KT 13/08 A2974 RMK A01 T01280084  RH  074%=      5-min Rain = 0
KTA1 111954Z 22013KT 13/08 A2974 RMK A01 T01280084  RH  074%=      5-min Rain = 0
KTA1 111955Z 22013KT 13/09 A2974 RMK A01 T01280085  RH  075%=      5-min Rain = 0
KTA1 111956Z 22012KT 13/09 A2974 RMK A01 T01280085  RH  075%=      5-min Rain = 0
KTA1 111957Z 22011KT 13/09 A2974 RMK A01 T01280085  RH  075%=      5-min Rain = 0
KTA1 111958Z 22011KT 13/09 A2974 RMK A01 T01280086  RH  076%=      5-min Rain = 0
KTA1 111959Z 21012KT 13/09 A2974 RMK A01 T01280086  RH  075%=      5-min Rain = 0
KTA1 112000Z 21013KT 13/09 A2973 RMK A01 T01280085  RH  075%=      5-min Rain = 0
KTA1 112001Z 21011KT 13/09 A2973 RMK A01 T01280085  RH  075%=      5-min Rain = 0
KTA1 112002Z 21011KT 13/09 A2973 RMK A01 T01280085  RH  075%=      5-min Rain = 0
KTA1 112003Z 21013KT 13/09 A2973 RMK A01 T01280085  RH  075%=      5-min Rain = 0
KTA1 112004Z 21014KT 13/08 A2973 RMK A01 T01280083  RH  074%=      5-min Rain = 0
KTA1 112005Z 21015KT 13/08 A2973 RMK A01 T01290082  RH  073%=      5-min Rain = 0
KTA1 112006Z 21016KT 13/08 A2973 RMK A01 T01290081  RH  073%=      5-min Rain = 0
KTA1 112007Z 21014KT 13/08 A2973 RMK A01 T01290081  RH  072%=      5-min Rain = 0
KTA1 112008Z 21017KT 13/08 A2973 RMK A01 T01300081  RH  072%=      5-min Rain = 0
KTA1 112009Z 21015KT 13/08 A2973 RMK A01 T01300081  RH  072%=      5-min Rain = 0
KTA1 112010Z 21015KT 13/08 A2973 RMK A01 T01300082  RH  073%=      5-min Rain = 0
KTA1 112011Z 22014KT 13/08 A2973 RMK A01 T01300082  RH  073%=      5-min Rain = 0
KTA1 112012Z 21014KT 13/08 A2973 RMK A01 T01300081  RH  072%=      5-min Rain = 0
KTA1 112013Z 21014KT 13/08 A2973 RMK A01 T01300082  RH  073%=      5-min Rain = 0
KTA1 112014Z 21015KT 13/08 A2973 RMK A01 T01300082  RH  073%=      5-min Rain = 0
KTA1 112015Z 21018KT 13/08 A2973 RMK A01 T01300082  RH  073%=      5-min Rain = 0
KTA1 112016Z 21014KT 13/08 A2973 RMK A01 T01300081  RH  072%=      5-min Rain = 0
KTA1 112017Z 21015KT 13/08 A2972 RMK A01 T01300082  RH  073%=      5-min Rain = 0
KTA1 112018Z 22015KT 13/08 A2972 RMK A01 T01300082  RH  073%=      5-min Rain = 0
KTA1 112019Z 21016KT 13/08 A2972 RMK A01 T01300082  RH  072%=      5-min Rain = 0
KTA1 112020Z 22017KT 13/08 A2972 RMK A01 T01310082  RH  072%=      5-min Rain = 0
KTA1 112021Z 21017KT 13/08 A2972 RMK A01 T01310081  RH  071%=      5-min Rain = 0
KTA1 112022Z 21016KT 13/08 A2972 RMK A01 T01320082  RH  072%=      5-min Rain = 0
KTA1 112023Z 22014KT 13/08 A2972 RMK A01 T01320083  RH  072%=      5-min Rain = 0
KTA1 112024Z 22016KT 13/08 A2972 RMK A01 T01320083  RH  072%=      5-min Rain = 0
KTA1 112025Z 21016KT 13/08 A2972 RMK A01 T01320082  RH  072%=      5-min Rain = 0
KTA1 112026Z 22015KT 13/08 A2972 RMK A01 T01320082  RH  072%=      5-min Rain = 0
KTA1 112027Z 22017KT 13/08 A2972 RMK A01 T01320082  RH  072%=      5-min Rain = 0
KTA1 112028Z 22015KT 13/08 A2972 RMK A01 T01320082  RH  072%=      5-min Rain = 0
KTA1 112029Z 22015KT 13/08 A2972 RMK A01 T01320082  RH  072%=      5-min Rain = 0
KTA1 112030Z 22014KT 13/08 A2972 RMK A01 T01320083  RH  072%=      5-min Rain = 0
KTA1 112031Z 22014KT 13/08 A2972 RMK A01 T01330084  RH  072%=      5-min Rain = 0
KTA1 112032Z 21015G21KT 13/08 A2972 RMK A01 T01330083  RH  072%=      5-min Rain = 0
KTA1 112033Z 22013KT 13/08 A2972 RMK A01 T01330083  RH  072%=      5-min Rain = 0
KTA1 112034Z 22016KT 13/09 A2972 RMK A01 T01340085  RH  072%=      5-min Rain = 0
KTA1 112035Z 22015KT 13/08 A2972 RMK A01 T01340084  RH  071%=      5-min Rain = 0
KTA1 112036Z 22017KT 14/09 A2972 RMK A01 T01350085  RH  072%=      5-min Rain = 0
KTA1 112037Z 22016KT 14/08 A2972 RMK A01 T01350083  RH  071%=      5-min Rain = 0
KTA1 112038Z 22015KT 14/08 A2972 RMK A01 T01350084  RH  071%=      5-min Rain = 0
KTA1 112039Z 22017KT 14/08 A2972 RMK A01 T01360083  RH  071%=      5-min Rain = 0
KTA1 112040Z 22016KT 14/08 A2972 RMK A01 T01360084  RH  070%=      5-min Rain = 0
KTA1 112041Z 23017G24KT 14/08 A2972 RMK A01 T01370084  RH  070%=      5-min Rain = 0
KTA1 112042Z 23017G23KT 14/08 A2972 RMK A01 T01370083  RH  070%=      5-min Rain = 0
KTA1 112043Z 23015KT 14/08 A2972 RMK A01 T01380083  RH  070%=      5-min Rain = 0
KTA1 112044Z 23015KT 14/08 A2972 RMK A01 T01380084  RH  070%=      5-min Rain = 0
KTA1 112045Z 23015KT 14/09 A2972 RMK A01 T01380085  RH  071%=      5-min Rain = 0
KTA1 112046Z 22015KT 14/09 A2972 RMK A01 T01380085  RH  071%=      5-min Rain = 0
KTA1 112047Z 23016KT 14/09 A2972 RMK A01 T01380085  RH  070%=      5-min Rain = 0
KTA1 112048Z 22016KT 14/08 A2972 RMK A01 T01380083  RH  069%=      5-min Rain = 0
KTA1 112049Z 22015G20KT 14/08 A2972 RMK A01 T01380084  RH  070%=      5-min Rain = 0
KTA1 112050Z 22016KT 14/09 A2972 RMK A01 T01390085  RH  070%=      5-min Rain = 0
KTA1 112051Z 22015G20KT 14/09 A2972 RMK A01 T01390085  RH  070%=      5-min Rain = 0
KTA1 112052Z 22017KT 14/08 A2972 RMK A01 T01390084  RH  069%=      5-min Rain = 0
KTA1 112053Z 22015KT 14/09 A2972 RMK A01 T01400085  RH  069%=      5-min Rain = 0
KTA1 112054Z 22015G21KT 14/09 A2972 RMK A01 T01410086  RH  070%=      5-min Rain = 0
KTA1 112055Z 22016KT 14/09 A2972 RMK A01 T01430086  RH  068%=      5-min Rain = 0
KTA1 112056Z 22016KT 15/09 A2972 RMK A01 T01460087  RH  068%=      5-min Rain = 0
KTA1 112057Z 22017KT 15/09 A2972 RMK A01 T01480088  RH  067%=      5-min Rain = 0
KTA1 112058Z 22021G26KT 15/09 A2971 RMK A01 T01500086  RH  066%=      5-min Rain = 0
KTA1 112059Z 23018KT 15/08 A2971 RMK A01 T01500082  RH  064%=      5-min Rain = 0
KTA1 112100Z 22021KT 15/08 A2971 RMK A01 T01510084  RH  064%=      5-min Rain = 0
KTA1 112101Z 22019KT 15/08 A2971 RMK A01 T01520083  RH  063%=      5-min Rain = 0
KTA1 112102Z 23022KT 15/08 A2971 RMK A01 T01530082  RH  063%=      5-min Rain = 0
KTA1 112103Z 22019KT 15/08 A2971 RMK A01 T01530082  RH  062%=      5-min Rain = 0
KTA1 112104Z 23023KT 15/08 A2971 RMK A01 T01530082  RH  062%=      5-min Rain = 0
KTA1 112105Z 22022KT 15/08 A2971 RMK A01 T01510080  RH  062%=      5-min Rain = 0
KTA1 112106Z 22020KT 15/08 A297 RMK A01 T01500077  RH  062%=      5-min Rain = 0
KTA1 112107Z 22014G19KT 15/08 A2971 RMK A01 T01490080  RH  063%=      5-min Rain = 0
KTA1 112108Z 22019KT 15/08 A2971 RMK A01 T01510080  RH  063%=      5-min Rain = 0
KTA1 112109Z 22018KT 15/08 A2971 RMK A01 T01530077  RH  061%=      5-min Rain = 0
KTA1 112110Z 22016KT 16/08 A2971 RMK A01 T01560081  RH  061%=      5-min Rain = 0
KTA1 112111Z 22021KT 16/08 A2971 RMK A01 T01590080  RH  060%=      5-min Rain = 0
KTA1 112112Z 22021G26KT 16/08 A2971 RMK A01 T01600076  RH  058%=      5-min Rain = 0
KTA1 112113Z 23021G26KT 16/08 A2971 RMK A01 T01600076  RH  057%=      5-min Rain = 0
KTA1 112114Z 22015KT 16/08 A2971 RMK A01 T01610080  RH  059%=      5-min Rain = 0
KTA1 112115Z 23022G27KT 16/08 A2971 RMK A01 T01630076  RH  056%=      5-min Rain = 0
KTA1 112116Z 23023KT 16/07 A2971 RMK A01 T01630072  RH  055%=      5-min Rain = 0
KTA1 112117Z 22018KT 16/07 A2971 RMK A01 T01620073  RH  055%=      5-min Rain = 0
KTA1 112118Z 23018KT 16/08 A2971 RMK A01 T01630075  RH  056%=      5-min Rain = 0
KTA1 112119Z 23019G24KT 16/08 A2971 RMK A01 T01640076  RH  056%=      5-min Rain = 0
KTA1 112120Z 24024G29KT 17/07 A2971 RMK A01 T01650073  RH  054%=      5-min Rain = 0
KTA1 112121Z 23021G26KT 17/07 A2971 RMK A01 T01650069  RH  053%=      5-min Rain = 0
KTA1 112122Z 23019G24KT 17/07 A2971 RMK A01 T01650071  RH  054%=      5-min Rain = 0
KTA1 112123Z 23022KT 17/07 A2971 RMK A01 T01650070  RH  053%=      5-min Rain = 0
KTA1 112124Z 23020G27KT 17/07 A2971 RMK A01 T01660071  RH  053%=      5-min Rain = 0
KTA1 112125Z 23023G28KT 17/07 A2971 RMK A01 T01670071  RH  053%=      5-min Rain = 0
KTA1 112126Z 23020G26KT 17/07 A2971 RMK A01 T01680069  RH  052%=      5-min Rain = 0
KTA1 112127Z 23019G25KT 17/07 A2971 RMK A01 T01680070  RH  052%=      5-min Rain = 0
KTA1 112128Z 24020KT 17/07 A2971 RMK A01 T01680070  RH  052%=      5-min Rain = 0
KTA1 112129Z 23019KT 17/07 A2971 RMK A01 T01690069  RH  052%=      5-min Rain = 0
KTA1 112130Z 23016G25KT 17/07 A2971 RMK A01 T01690073  RH  053%=      5-min Rain = 0
KTA1 112131Z 24020G27KT 17/07 A2971 RMK A01 T01700072  RH  052%=      5-min Rain = 0
KTA1 112132Z 22021KT 17/07 A2971 RMK A01 T01690069  RH  052%=      5-min Rain = 0
KTA1 112133Z 23020G26KT 17/07 A2971 RMK A01 T01670067  RH  052%=      5-min Rain = 0
KTA1 112134Z 22020KT 17/07 A2971 RMK A01 T01650067  RH  052%=      5-min Rain = 0
KTA1 112135Z 23021KT 17/07 A2971 RMK A01 T01650066  RH  052%=      5-min Rain = 0
KTA1 112136Z 23021G29KT 17/06 A2971 RMK A01 T01660064  RH  051%=      5-min Rain = 0
KTA1 112137Z 23015KT 17/07 A2972 RMK A01 T01680069  RH  052%=      5-min Rain = 0
KTA1 112138Z 23023G30KT 17/07 A2971 RMK A01 T01710065  RH  050%=      5-min Rain = 0
KTA1 112139Z 22023KT 17/06 A2971 RMK A01 T01710059  RH  048%=      5-min Rain = 0
KTA1 112140Z 23021G26KT 17/06 A2971 RMK A01 T01710058  RH  047%=      5-min Rain = 0
KTA1 112141Z 23022KT 17/06 A2971 RMK A01 T01720061  RH  048%=      5-min Rain = 0
KTA1 112142Z 23024KT 17/06 A2971 RMK A01 T01730059  RH  047%=      5-min Rain = 0
KTA1 112143Z 24022G27KT 17/06 A2971 RMK A01 T01720056  RH  046%=      5-min Rain = 0
KTA1 112144Z 23023G28KT 17/06 A2971 RMK A01 T01720057  RH  047%=      5-min Rain = 0
KTA1 112145Z 24020G25KT 17/06 A2971 RMK A01 T01720056  RH  046%=      5-min Rain = 0
KTA1 112146Z 24018KT 17/06 A2971 RMK A01 T01730057  RH  047%=      5-min Rain = 0
KTA1 112147Z 23017G24KT 17/06 A2971 RMK A01 T01740062  RH  048%=      5-min Rain = 0
KTA1 112148Z 23020G25KT 18/06 A2971 RMK A01 T01750059  RH  046%=      5-min Rain = 0
KTA1 112149Z 22023G31KT 18/05 A2971 RMK A01 T01750053  RH  045%=      5-min Rain = 0
KTA1 112150Z 23025KT 17/05 A2971 RMK A01 T01740047  RH  043%=      5-min Rain = 0
KTA1 112151Z 23026G32KT 17/05 A2971 RMK A01 T01740048  RH  043%=      5-min Rain = 0
KTA1 112152Z 24022G28KT 17/05 A2971 RMK A01 T01740050  RH  044%=      5-min Rain = 0
KTA1 112153Z 23024KT 17/05 A2971 RMK A01 T01740045  RH  043%=      5-min Rain = 0
KTA1 112154Z 24024KT 17/05 A2971 RMK A01 T01740047  RH  043%=      5-min Rain = 0
KTA1 112155Z 22027KT 17/05 A2971 RMK A01 T01740046  RH  043%=      5-min Rain = 0
KTA1 112156Z 23027G32KT 17/05 A2971 RMK A01 T01730046  RH  043%=      5-min Rain = 0
KTA1 112157Z 23024G30KT 17/05 A2971 RMK A01 T01720047  RH  043%=      5-min Rain = 0
KTA1 112158Z 23024G30KT 17/05 A2971 RMK A01 T01720048  RH  044%=      5-min Rain = 0
KTA1 112159Z 24024G30KT 17/05 A2971 RMK A01 T01730045  RH  043%=      5-min Rain = 0
KTA1 112200Z 23023KT 17/04 A2971 RMK A01 T01730044  RH  042%=      5-min Rain = 0
KTA1 112201Z 23022G27KT 17/05 A2971 RMK A01 T01730045  RH  043%=      5-min Rain = 0
KTA1 112202Z 23022KT 17/05 A2971 RMK A01 T01740047  RH  043%=      5-min Rain = 0
KTA1 112203Z 23024KT 17/05 A297 RMK A01 T01740045  RH  043%=      5-min Rain = 0
KTA1 112204Z 24024G30KT 17/04 A2971 RMK A01 T01730044  RH  042%=      5-min Rain = 0
KTA1 112205Z 23019KT 17/04 A2971 RMK A01 T01730041  RH  041%=      5-min Rain = 0
KTA1 112206Z 24018G25KT 17/04 A2971 RMK A01 T01740044  RH  042%=      5-min Rain = 0
KTA1 112207Z 23023G28KT 18/04 A2971 RMK A01 T01750042  RH  041%=      5-min Rain = 0
KTA1 112208Z 24021G26KT 18/04 A2971 RMK A01 T01760041  RH  041%=      5-min Rain = 0
KTA1 112209Z 23026G32KT 18/04 A297 RMK A01 T01760041  RH  041%=      5-min Rain = 0
KTA1 112210Z 24025G30KT 18/04 A297 RMK A01 T01760038  RH  040%=      5-min Rain = 0
KTA1 112211Z 24026KT 18/04 A297 RMK A01 T01760039  RH  040%=      5-min Rain = 0
KTA1 112212Z 24026KT 18/04 A297 RMK A01 T01750037  RH  040%=      5-min Rain = 0
KTA1 112213Z 23025KT 18/04 A297 RMK A01 T01750036  RH  040%=      5-min Rain = 0
KTA1 112214Z 24026G31KT 18/04 A297 RMK A01 T01750035  RH  039%=      5-min Rain = 0
KTA1 112215Z 24027G32KT 18/03 A297 RMK A01 T01750030  RH  038%=      5-min Rain = 0
KTA1 112216Z 24025G31KT 18/03 A297 RMK A01 T01750032  RH  038%=      5-min Rain = 0
KTA1 112217Z 24023G28KT 18/03 A297 RMK A01 T01750033  RH  039%=      5-min Rain = 0
KTA1 112218Z 23021G26KT 18/04 A297 RMK A01 T01760036  RH  039%=      5-min Rain = 0
KTA1 112219Z 23025G30KT 18/04 A297 RMK A01 T01760037  RH  039%=      5-min Rain = 0
KTA1 112220Z 23023G29KT 18/04 A297 RMK A01 T01770036  RH  039%=      5-min Rain = 0
KTA1 112221Z 23021KT 18/04 A297 RMK A01 T01760035  RH  039%=      5-min Rain = 0
KTA1 112222Z 23023KT 18/04 A297 RMK A01 T01770035  RH  039%=      5-min Rain = 0
KTA1 112223Z 24022KT 18/03 A297 RMK A01 T01760033  RH  038%=      5-min Rain = 0
KTA1 112224Z 24019G25KT 18/04 A297 RMK A01 T01770036  RH  039%=      5-min Rain = 0
KTA1 112225Z 24020KT 18/04 A297 RMK A01 T01780035  RH  038%=      5-min Rain = 0
KTA1 112226Z 23024G31KT 18/03 A297 RMK A01 T01790030  RH  037%=      5-min Rain = 0
KTA1 112227Z 23023G29KT 18/03 A297 RMK A01 T01790027  RH  036%=      5-min Rain = 0
KTA1 112228Z 24024G29KT 18/03 A297 RMK A01 T01790026  RH  036%=      5-min Rain = 0
KTA1 112229Z 23021KT 18/03 A297 RMK A01 T01790026  RH  036%=      5-min Rain = 0
KTA1 112230Z 24026KT 18/03 A297 RMK A01 T01790026  RH  036%=      5-min Rain = 0
KTA1 112231Z 23026G32KT 18/02 A297 RMK A01 T01790022  RH  035%=      5-min Rain = 0
KTA1 112232Z 23027G35KT 18/02 A2969 RMK A01 T01790019  RH  034%=      5-min Rain = 0
KTA1 112233Z 23027G35KT 18/02 A2969 RMK A01 T01790016  RH  033%=      5-min Rain = 0
KTA1 112234Z 23025G31KT 18/02 A297 RMK A01 T01790015  RH  033%=      5-min Rain = 0
KTA1 112235Z 23026KT 18/01 A297 RMK A01 T01780013  RH  033%=      5-min Rain = 0
KTA1 112236Z 23024G30KT 18/01 A297 RMK A01 T01780014  RH  033%=      5-min Rain = 0
KTA1 112237Z 24024KT 18/01 A297 RMK A01 T01780014  RH  033%=      5-min Rain = 0
KTA1 112238Z 24023KT 18/01 A297 RMK A01 T01780012  RH  033%=      5-min Rain = 0
KTA1 112239Z 24025KT 18/01 A297 RMK A01 T01790009  RH  032%=      5-min Rain = 0
KTA1 112240Z 24025G32KT 18/01 A297 RMK A01 T01800007  RH  031%=      5-min Rain = 0
KTA1 112241Z 24024G31KT 18/00 A297 RMK A01 T01800004  RH  031%=      5-min Rain = 0
KTA1 112242Z 25026G32KT 18/00 A297 RMK A01 T01810002  RH  030%=      5-min Rain = 0
KTA1 112243Z 24027G34KT 18/M01 A297 RMK A01 T01821007  RH  028%=      5-min Rain = 0
KTA1 112244Z 25028G35KT 18/M01 A297 RMK A01 T01821012  RH  027%=      5-min Rain = 0
KTA1 112245Z 25030G36KT 18/M02 A297 RMK A01 T01821017  RH  026%=      5-min Rain = 0
KTA1 112246Z 24027G32KT 18/M02 A297 RMK A01 T01811017  RH  026%=      5-min Rain = 0
KTA1 112247Z 25028G34KT 18/M02 A2971 RMK A01 T01811016  RH  026%=      5-min Rain = 0
KTA1 112248Z 25024G30KT 18/M02 A2971 RMK A01 T01811018  RH  026%=      5-min Rain = 0
KTA1 112249Z 24027G35KT 18/M02 A2971 RMK A01 T01801017  RH  026%=      5-min Rain = 0
KTA1 112250Z 25026G31KT 18/M02 A2971 RMK A01 T01801016  RH  026%=      5-min Rain = 0
KTA1 112251Z 25025G31KT 18/M01 A2971 RMK A01 T01801014  RH  027%=      5-min Rain = 0
KTA1 112252Z 25030G36KT 18/M02 A2971 RMK A01 T01801018  RH  026%=      5-min Rain = 0
KTA1 112253Z 25029KT 18/M02 A2971 RMK A01 T01801022  RH  025%=      5-min Rain = 0
KTA1 112254Z 25022G27KT 18/M02 A2971 RMK A01 T01801022  RH  025%=      5-min Rain = 0
KTA1 112255Z 25025G32KT 18/M02 A2971 RMK A01 T01801020  RH  026%=      5-min Rain = 0
KTA1 112256Z 25025KT 18/M02 A2971 RMK A01 T01801019  RH  026%=      5-min Rain = 0
KTA1 112257Z 25021G26KT 18/M02 A2971 RMK A01 T01801017  RH  026%=      5-min Rain = 0
KTA1 112258Z 25028G36KT 18/M02 A2971 RMK A01 T01801019  RH  026%=      5-min Rain = 0
KTA1 112259Z 25032G38KT 18/M02 A2971 RMK A01 T01801024  RH  025%=      5-min Rain = 0
KTA1 112300Z 25030G35KT 18/M03 A2971 RMK A01 T01801028  RH  024%=      5-min Rain = 0
KTA1 112301Z 24031G37KT 18/M03 A2971 RMK A01 T01801032  RH  023%=      5-min Rain = 0
KTA1 112302Z 25031G36KT 18/M04 A2971 RMK A01 T01791035  RH  023%=      5-min Rain = 0
KTA1 112303Z 25024KT 18/M03 A2972 RMK A01 T01791033  RH  023%=      5-min Rain = 0
KTA1 112304Z 25026G33KT 18/M03 A2972 RMK A01 T01781030  RH  024%=      5-min Rain = 0
KTA1 112305Z 25025G32KT 18/M03 A2972 RMK A01 T01781030  RH  024%=      5-min Rain = 0
KTA1 112306Z 25025KT 18/M03 A2972 RMK A01 T01771030  RH  024%=      5-min Rain = 0
KTA1 112307Z 25027KT 18/M03 A2972 RMK A01 T01771030  RH  024%=      5-min Rain = 0
KTA1 112308Z 25026KT 18/M03 A2972 RMK A01 T01771031  RH  024%=      5-min Rain = 0
KTA1 112309Z 25022G31KT 18/M03 A2972 RMK A01 T01761031  RH  024%=      5-min Rain = 0
KTA1 112310Z 25023KT 18/M03 A2973 RMK A01 T01761029  RH  024%=      5-min Rain = 0
KTA1 112311Z 25026G31KT 18/M03 A2972 RMK A01 T01761029  RH  025%=      5-min Rain = 0
KTA1 112312Z 25029KT 18/M03 A2972 RMK A01 T01761030  RH  024%=      5-min Rain = 0
KTA1 112313Z 25026KT 18/M03 A2972 RMK A01 T01761031  RH  024%=      5-min Rain = 0
KTA1 112314Z 25026KT 18/M03 A2972 RMK A01 T01761031  RH  024%=      5-min Rain = 0
KTA1 112315Z 24026G31KT 18/M03 A2972 RMK A01 T01761030  RH  024%=      5-min Rain = 0
KTA1 112316Z 25025G31KT 18/M03 A2972 RMK A01 T01761029  RH  025%=      5-min Rain = 0
KTA1 112317Z 24029G37KT 18/M03 A2972 RMK A01 T01761033  RH  024%=      5-min Rain = 0
KTA1 112318Z 25030G37KT 18/M04 A2972 RMK A01 T01761035  RH  024%=      5-min Rain = 0
KTA1 112319Z 25027G32KT 18/M04 A2972 RMK A01 T01761036  RH  023%=      5-min Rain = 0
KTA1 112320Z 25028G36KT 18/M04 A2972 RMK A01 T01751036  RH  023%=      5-min Rain = 0
KTA1 112321Z 25025G34KT 17/M03 A2972 RMK A01 T01741034  RH  024%=      5-min Rain = 0
KTA1 112322Z 25024G32KT 17/M04 A2972 RMK A01 T01741035  RH  024%=      5-min Rain = 0
KTA1 112323Z 25024G29KT 17/M03 A2973 RMK A01 T01741034  RH  024%=      5-min Rain = 0
KTA1 112324Z 26024KT 17/M04 A2973 RMK A01 T01741035  RH  024%=      5-min Rain = 0
KTA1 112325Z 25030KT 17/M04 A2973 RMK A01 T01741037  RH  023%=      5-min Rain = 0
KTA1 112326Z 25025G31KT 17/M04 A2973 RMK A01 T01741039  RH  023%=      5-min Rain = 0
KTA1 112327Z 25025G30KT 17/M04 A2973 RMK A01 T01741036  RH  024%=      5-min Rain = 0
KTA1 112328Z 25028KT 17/M04 A2972 RMK A01 T01741037  RH  023%=      5-min Rain = 0
KTA1 112329Z 25027G33KT 17/M04 A2972 RMK A01 T01741038  RH  023%=      5-min Rain = 0
KTA1 112330Z 25025G32KT 17/M04 A2973 RMK A01 T01731038  RH  023%=      5-min Rain = 0
KTA1 112331Z 25022G27KT 17/M04 A2973 RMK A01 T01731036  RH  024%=      5-min Rain = 0
KTA1 112332Z 25020G29KT 17/M04 A2973 RMK A01 T01721035  RH  024%=      5-min Rain = 0
KTA1 112333Z 25024G31KT 17/M04 A2973 RMK A01 T01721035  RH  024%=      5-min Rain = 0
KTA1 112334Z 25023G31KT 17/M04 A2973 RMK A01 T01721036  RH  024%=      5-min Rain = 0
KTA1 112335Z 26022KT 17/M04 A2973 RMK A01 T01721036  RH  024%=      5-min Rain = 0
KTA1 112336Z 25022G27KT 17/M04 A2973 RMK A01 T01711035  RH  024%=      5-min Rain = 0
KTA1 112337Z 25023KT 17/M04 A2973 RMK A01 T01711036  RH  024%=      5-min Rain = 0
KTA1 112338Z 25019G27KT 17/M04 A2973 RMK A01 T01711035  RH  024%=      5-min Rain = 0
KTA1 112339Z 25023G31KT 17/M04 A2973 RMK A01 T01701035  RH  024%=      5-min Rain = 0
KTA1 112340Z 25019G25KT 17/M03 A2974 RMK A01 T01701034  RH  025%=      5-min Rain = 0
KTA1 112341Z 25022G27KT 17/M03 A2973 RMK A01 T01701033  RH  025%=      5-min Rain = 0
KTA1 112342Z 25022G29KT 17/M03 A2974 RMK A01 T01691034  RH  025%=      5-min Rain = 0
KTA1 112343Z 25022KT 17/M04 A2974 RMK A01 T01691036  RH  024%=      5-min Rain = 0
KTA1 112344Z 25020G25KT 17/M03 A2974 RMK A01 T01691034  RH  025%=      5-min Rain = 0
KTA1 112345Z 25020KT 17/M03 A2974 RMK A01 T01691034  RH  025%=      5-min Rain = 0
KTA1 112346Z 25024KT 17/M04 A2974 RMK A01 T01681035  RH  025%=      5-min Rain = 0
KTA1 112347Z 26028G35KT 17/M05 A2974 RMK A01 T01681046  RH  023%=      5-min Rain = 0
KTA1 112348Z 26030G36KT 17/M06 A2974 RMK A01 T01691064  RH  020%=      5-min Rain = 0
KTA1 112349Z 26025G30KT 17/M07 A2974 RMK A01 T01691066  RH  019%=      5-min Rain = 0
KTA1 112350Z 26022G28KT 17/M07 A2974 RMK A01 T01691067  RH  019%=      5-min Rain = 0
KTA1 112351Z 26023G31KT 17/M07 A2974 RMK A01 T01671072  RH  019%=      5-min Rain = 0
KTA1 112352Z 27024KT 17/M07 A2975 RMK A01 T01671074  RH  019%=      5-min Rain = 0
KTA1 112353Z 27027G35KT 17/M08 A2975 RMK A01 T01671080  RH  018%=      5-min Rain = 0
KTA1 112354Z 27027G34KT 17/M09 A2975 RMK A01 T01661088  RH  017%=      5-min Rain = 0
KTA1 112355Z 27023KT 17/M09 A2975 RMK A01 T01661089  RH  017%=      5-min Rain = 0
KTA1 112356Z 27019KT 16/M09 A2975 RMK A01 T01641087  RH  017%=      5-min Rain = 0
KTA1 112357Z 27019G24KT 16/M09 A2975 RMK A01 T01631085  RH  017%=      5-min Rain = 0
KTA1 112358Z 27019G24KT 16/M09 A2975 RMK A01 T01621087  RH  017%=      5-min Rain = 0
KTA1 112359Z 27017KT 16/M09 A2976 RMK A01 T01611086  RH  018%=      5-min Rain = 0
KTA1 120000Z 27019KT 16/M09 A2976 RMK A01 T01601087  RH  018%=      5-min Rain = 0
KTA1 120001Z 27021G29KT 16/M09 A2976 RMK A01 T01601089  RH  017%=      5-min Rain = 0
KTA1 120002Z 27021G26KT 16/M09 A2976 RMK A01 T01591089  RH  017%=      5-min Rain = 0
KTA1 120003Z 27022G28KT 16/M09 A2976 RMK A01 T01591089  RH  017%=      5-min Rain = 0
KTA1 120004Z 27022KT 16/M09 A2976 RMK A01 T01591090  RH  017%=      5-min Rain = 0
KTA1 120005Z 27021G27KT 16/M09 A2976 RMK A01 T01591089  RH  017%=      5-min Rain = 0
KTA1 120006Z 27021KT 16/M09 A2976 RMK A01 T01581089  RH  017%=      5-min Rain = 0
KTA1 120007Z 27020G27KT 16/M09 A2976 RMK A01 T01581090  RH  017%=      5-min Rain = 0
KTA1 120008Z 27019G26KT 16/M09 A2976 RMK A01 T01571087  RH  018%=      5-min Rain = 0
KTA1 120009Z 27020G25KT 16/M09 A2976 RMK A01 T01561088  RH  018%=      5-min Rain = 0
KTA1 120010Z 27020G26KT 16/M09 A2976 RMK A01 T01561088  RH  018%=      5-min Rain = 0
KTA1 120011Z 27020KT 16/M09 A2977 RMK A01 T01561088  RH  018%=      5-min Rain = 0
KTA1 120012Z 27020KT 16/M09 A2977 RMK A01 T01551088  RH  018%=      5-min Rain = 0
KTA1 120013Z 28017G22KT 16/M09 A2977 RMK A01 T01551088  RH  018%=      5-min Rain = 0
KTA1 120014Z 27018G24KT 15/M09 A2977 RMK A01 T01541087  RH  018%=      5-min Rain = 0
KTA1 120015Z 28020KT 15/M09 A2977 RMK A01 T01541090  RH  018%=      5-min Rain = 0
KTA1 120016Z 27016G23KT 15/M09 A2977 RMK A01 T01541089  RH  018%=      5-min Rain = 0
KTA1 120017Z 27018KT 15/M09 A2977 RMK A01 T01531088  RH  018%=      5-min Rain = 0
KTA1 120018Z 28018KT 15/M09 A2978 RMK A01 T01521086  RH  019%=      5-min Rain = 0
KTA1 120019Z 28022G27KT 15/M09 A2978 RMK A01 T01511086  RH  019%=      5-min Rain = 0
KTA1 120020Z 28021KT 15/M09 A2978 RMK A01 T01511087  RH  019%=      5-min Rain = 0
KTA1 120021Z 28024G29KT 15/M09 A2978 RMK A01 T01511087  RH  018%=      5-min Rain = 0
KTA1 120022Z 29023G30KT 15/M09 A2979 RMK A01 T01511085  RH  019%=      5-min Rain = 0
KTA1 120023Z 30025G30KT 15/M08 A2979 RMK A01 T01491079  RH  020%=      5-min Rain = 0
KTA1 120024Z 30026G35KT 14/M07 A2979 RMK A01 T01441072  RH  022%=      5-min Rain = 0
KTA1 120025Z 30027G32KT 14/M07 A2979 RMK A01 T01391069  RH  023%=      5-min Rain = 0
KTA1 120026Z 29026G32KT 14/M07 A298 RMK A01 T01371068  RH  024%=      5-min Rain = 0
KTA1 120027Z 30025KT 14/M07 A298 RMK A01 T01351067  RH  024%=      5-min Rain = 0
KTA1 120028Z 30022G27KT 13/M07 A298 RMK A01 T01331067  RH  024%=      5-min Rain = 0
KTA1 120029Z 30025G31KT 13/M07 A298 RMK A01 T01321067  RH  024%=      5-min Rain = 0
KTA1 120030Z 30024KT 13/M07 A298 RMK A01 T01321067  RH  024%=      5-min Rain = 0
KTA1 120031Z 31021KT 13/M07 A298 RMK A01 T01311067  RH  025%=      5-min Rain = 0
KTA1 120032Z 30024KT 13/M07 A298 RMK A01 T01311067  RH  025%=      5-min Rain = 0
KTA1 120033Z 31025G31KT 13/M07 A298 RMK A01 T01301068  RH  025%=      5-min Rain = 0
KTA1 120034Z 30022G30KT 13/M07 A2981 RMK A01 T01301069  RH  025%=      5-min Rain = 0
KTA1 120035Z 31025G32KT 13/M07 A2981 RMK A01 T01291072  RH  024%=      5-min Rain = 0
KTA1 120036Z 31022KT 13/M08 A2981 RMK A01 T01281076  RH  023%=      5-min Rain = 0
KTA1 120037Z 31023G30KT 13/M08 A2981 RMK A01 T01281077  RH  023%=      5-min Rain = 0
KTA1 120038Z 30025G30KT 13/M08 A2982 RMK A01 T01271081  RH  023%=      5-min Rain = 0
KTA1 120039Z 30024G29KT 13/M09 A2982 RMK A01 T01271085  RH  022%=      5-min Rain = 0
KTA1 120040Z 30024G29KT 13/M09 A2982 RMK A01 T01271091  RH  021%=      5-min Rain = 0
KTA1 120041Z 30025G31KT 13/M10 A2982 RMK A01 T01261095  RH  020%=      5-min Rain = 0
KTA1 120042Z 30019G24KT 13/M10 A2982 RMK A01 T01261098  RH  020%=      5-min Rain = 0
KTA1 120043Z 30021KT 13/M10 A2983 RMK A01 T01251097  RH  020%=      5-min Rain = 0
KTA1 120044Z 30022KT 12/M10 A2983 RMK A01 T01241098  RH  020%=      5-min Rain = 0
KTA1 120045Z 30017G23KT 12/M10 A2983 RMK A01 T01241097  RH  020%=      5-min Rain = 0
KTA1 120046Z 30021KT 12/M10 A2983 RMK A01 T01231096  RH  021%=      5-min Rain = 0
KTA1 120047Z 31021G26KT 12/M10 A2983 RMK A01 T01221098  RH  020%=      5-min Rain = 0
KTA1 120048Z 30027KT 12/M11 A2983 RMK A01 T01221106  RH  019%=      5-min Rain = 0
KTA1 120049Z 30025G31KT 12/M11 A2983 RMK A01 T01221112  RH  018%=      5-min Rain = 0
KTA1 120050Z 30023G28KT 12/M12 A2984 RMK A01 T01221117  RH  018%=      5-min Rain = 0
KTA1 120051Z 30022G27KT 12/M12 A2984 RMK A01 T01211117  RH  018%=      5-min Rain = 0
KTA1 120052Z 30020KT 12/M12 A2984 RMK A01 T01201118  RH  018%=      5-min Rain = 0
KTA1 120053Z 30023KT 12/M12 A2984 RMK A01 T01181119  RH  018%=      5-min Rain = 0
KTA1 120054Z 30021KT 12/M12 A2984 RMK A01 T01181123  RH  017%=      5-min Rain = 0
KTA1 120055Z 30019KT 12/M12 A2984 RMK A01 T01181123  RH  017%=      5-min Rain = 0
KTA1 120056Z 30019G24KT 12/M12 A2985 RMK A01 T01171121  RH  018%=      5-min Rain = 0
KTA1 120057Z 30021KT 12/M12 A2985 RMK A01 T01161124  RH  017%=      5-min Rain = 0
KTA1 120058Z 30019G24KT 12/M13 A2985 RMK A01 T01161128  RH  017%=      5-min Rain = 0
KTA1 120059Z 30017G22KT 12/M13 A2985 RMK A01 T01161126  RH  017%=      5-min Rain = 0
KTA1 120100Z 30019G25KT 11/M13 A2985 RMK A01 T01141126  RH  017%=      5-min Rain = 0
KTA1 120101Z 30019KT 11/M13 A2985 RMK A01 T01141127  RH  017%=      5-min Rain = 0
KTA1 120102Z 30021KT 11/M13 A2985 RMK A01 T01141130  RH  017%=      5-min Rain = 0
KTA1 120103Z 30017KT 11/M13 A2985 RMK A01 T01141132  RH  017%=      5-min Rain = 0
KTA1 120104Z 30018KT 11/M13 A2985 RMK A01 T01141129  RH  017%=      5-min Rain = 0
KTA1 120105Z 30020KT 11/M13 A2985 RMK A01 T01131131  RH  017%=      5-min Rain = 0
KTA1 120106Z 30021KT 11/M13 A2985 RMK A01 T01131133  RH  016%=      5-min Rain = 0
KTA1 120107Z 29021KT 11/M14 A2986 RMK A01 T01131135  RH  016%=      5-min Rain = 0
KTA1 120108Z 30021KT 11/M13 A2986 RMK A01 T01131134  RH  016%=      5-min Rain = 0
KTA1 120109Z 29020G25KT 11/M14 A2986 RMK A01 T01131135  RH  016%=      5-min Rain = 0
KTA1 120110Z 29018KT 11/M14 A2986 RMK A01 T01121136  RH  016%=      5-min Rain = 0
KTA1 120111Z 30018KT 11/M14 A2986 RMK A01 T01121135  RH  016%=      5-min Rain = 0
KTA1 120112Z 30021KT 11/M14 A2986 RMK A01 T01111135  RH  016%=      5-min Rain = 0
KTA1 120113Z 30019KT 11/M14 A2986 RMK A01 T01111136  RH  016%=      5-min Rain = 0
KTA1 120114Z 30020KT 11/M14 A2986 RMK A01 T01111137  RH  016%=      5-min Rain = 0
KTA1 120115Z 30017KT 11/M14 A2987 RMK A01 T01111136  RH  016%=      5-min Rain = 0
KTA1 120116Z 30018KT 11/M14 A2987 RMK A01 T01101135  RH  016%=      5-min Rain = 0
KTA1 120117Z 30019G24KT 11/M13 A2987 RMK A01 T01091134  RH  017%=      5-min Rain = 0
KTA1 120118Z 29019KT 11/M14 A2987 RMK A01 T01091136  RH  017%=      5-min Rain = 0
KTA1 120119Z 30018KT 11/M14 A2987 RMK A01 T01091137  RH  016%=      5-min Rain = 0
KTA1 120120Z 30017G22KT 11/M14 A2987 RMK A01 T01091137  RH  016%=      5-min Rain = 0
KTA1 120121Z 30017G25KT 11/M14 A2987 RMK A01 T01091136  RH  017%=      5-min Rain = 0
KTA1 120122Z 30020KT 11/M14 A2987 RMK A01 T01081135  RH  017%=      5-min Rain = 0
KTA1 120123Z 30017KT 11/M14 A2987 RMK A01 T01081137  RH  016%=      5-min Rain = 0
KTA1 120124Z 30018G23KT 11/M14 A2987 RMK A01 T01071136  RH  017%=      5-min Rain = 0
KTA1 120125Z 30022KT 11/M14 A2987 RMK A01 T01071139  RH  016%=      5-min Rain = 0
KTA1 120126Z 30017G24KT 11/M14 A2988 RMK A01 T01071139  RH  016%=      5-min Rain = 0
KTA1 120127Z 30019G24KT 11/M14 A2988 RMK A01 T01061138  RH  017%=      5-min Rain = 0
KTA1 120128Z 30019KT 11/M14 A2988 RMK A01 T01071138  RH  016%=      5-min Rain = 0
KTA1 120129Z 30018KT 11/M14 A2988 RMK A01 T01061139  RH  016%=      5-min Rain = 0
KTA1 120130Z 30018KT 11/M14 A2988 RMK A01 T01061139  RH  016%=      5-min Rain = 0
KTA1 120131Z 30015G20KT 11/M14 A2988 RMK A01 T01051137  RH  017%=      5-min Rain = 0
KTA1 120132Z 30017KT 10/M14 A2988 RMK A01 T01041137  RH  017%=      5-min Rain = 0
KTA1 120133Z 30015KT 10/M14 A2988 RMK A01 T01041137  RH  017%=      5-min Rain = 0
KTA1 120134Z 30016G22KT 10/M14 A2988 RMK A01 T01031137  RH  017%=      5-min Rain = 0
KTA1 120135Z 30019KT 10/M14 A2988 RMK A01 T01031139  RH  017%=      5-min Rain = 0
KTA1 120136Z 30018KT 10/M14 A2988 RMK A01 T01041142  RH  016%=      5-min Rain = 0
KTA1 120137Z 30017G22KT 10/M14 A2988 RMK A01 T01041139  RH  017%=      5-min Rain = 0
KTA1 120138Z 30017KT 10/M14 A2989 RMK A01 T01031140  RH  017%=      5-min Rain = 0
KTA1 120139Z 29018KT 10/M14 A2989 RMK A01 T01031139  RH  017%=      5-min Rain = 0
KTA1 120140Z 29019KT 10/M14 A2989 RMK A01 T01031139  RH  017%=      5-min Rain = 0
KTA1 120141Z 29017KT 10/M14 A2989 RMK A01 T01021141  RH  017%=      5-min Rain = 0
KTA1 120142Z 30018KT 10/M14 A2989 RMK A01 T01021140  RH  017%=      5-min Rain = 0
KTA1 120143Z 29017G22KT 10/M14 A2989 RMK A01 T01021140  RH  017%=      5-min Rain = 0
KTA1 120144Z 30017KT 10/M14 A2989 RMK A01 T01011139  RH  017%=      5-min Rain = 0
KTA1 120145Z 29018KT 10/M14 A2989 RMK A01 T01011139  RH  017%=      5-min Rain = 0
KTA1 120146Z 29016KT 10/M14 A2989 RMK A01 T01011138  RH  017%=      5-min Rain = 0
KTA1 120147Z 29017KT 10/M14 A2989 RMK A01 T01011138  RH  017%=      5-min Rain = 0
KTA1 120148Z 29016KT 10/M14 A2989 RMK A01 T01001138  RH  017%=      5-min Rain = 0
KTA1 120149Z 29015KT 10/M14 A2989 RMK A01 T01001137  RH  017%=      5-min Rain = 0
KTA1 120150Z 29017KT 10/M14 A2989 RMK A01 T00991137  RH  017%=      5-min Rain = 0
KTA1 120151Z 29018G24KT 10/M14 A2989 RMK A01 T00991138  RH  017%=      5-min Rain = 0
KTA1 120152Z 29017KT 10/M14 A2989 RMK A01 T01001139  RH  017%=      5-min Rain = 0
KTA1 120153Z 29017KT 10/M14 A299 RMK A01 T01001138  RH  017%=      5-min Rain = 0
KTA1 120154Z 29015KT 10/M14 A299 RMK A01 T00991137  RH  017%=      5-min Rain = 0
KTA1 120155Z 29018KT 10/M14 A299 RMK A01 T00991138  RH  017%=      5-min Rain = 0
KTA1 120156Z 29018KT 10/M14 A299 RMK A01 T00991139  RH  017%=      5-min Rain = 0
KTA1 120157Z 29015G20KT 10/M14 A299 RMK A01 T00991138  RH  017%=      5-min Rain = 0
KTA1 120158Z 29018KT 10/M14 A299 RMK A01 T00981138  RH  018%=      5-min Rain = 0
KTA1 120159Z 29017G23KT 10/M14 A299 RMK A01 T00981138  RH  017%=      5-min Rain = 0
KTA1 120200Z 29016KT 10/M14 A2991 RMK A01 T00971138  RH  018%=      5-min Rain = 0
KTA1 120201Z 29017KT 10/M14 A2991 RMK A01 T00971137  RH  018%=      5-min Rain = 0
KTA1 120202Z 29017KT 10/M14 A2991 RMK A01 T00971138  RH  018%=      5-min Rain = 0
KTA1 120203Z 29017KT 10/M14 A2991 RMK A01 T00971139  RH  018%=      5-min Rain = 0
KTA1 120204Z 29019KT 10/M14 A2991 RMK A01 T00971138  RH  018%=      5-min Rain = 0
KTA1 120205Z 29016G22KT 10/M14 A2991 RMK A01 T00971138  RH  018%=      5-min Rain = 0
KTA1 120206Z 29018KT 10/M14 A2991 RMK A01 T00971137  RH  018%=      5-min Rain = 0
KTA1 120207Z 29016KT 10/M14 A2991 RMK A01 T00971138  RH  018%=      5-min Rain = 0
KTA1 120208Z 30015KT 10/M14 A2991 RMK A01 T00971137  RH  018%=      5-min Rain = 0
KTA1 120209Z 29015KT 10/M14 A2991 RMK A01 T00951137  RH  018%=      5-min Rain = 0
KTA1 120210Z 30015G21KT 09/M14 A2992 RMK A01 T00941135  RH  018%=      5-min Rain = 0
KTA1 120211Z 29017G22KT 09/M14 A2991 RMK A01 T00931136  RH  018%=      5-min Rain = 0
KTA1 120212Z 29017KT 09/M14 A2991 RMK A01 T00931137  RH  018%=      5-min Rain = 0
KTA1 120213Z 29018KT 09/M14 A2991 RMK A01 T00941137  RH  018%=      5-min Rain = 0
KTA1 120214Z 29019KT 09/M14 A2992 RMK A01 T00941137  RH  018%=      5-min Rain = 0
KTA1 120215Z 29016KT 09/M14 A2992 RMK A01 T00941137  RH  018%=      5-min Rain = 0
KTA1 120216Z 29017KT 09/M14 A2992 RMK A01 T00941136  RH  018%=      5-min Rain = 0
KTA1 120217Z 29016KT 09/M14 A2992 RMK A01 T00931135  RH  018%=      5-min Rain = 0
KTA1 120218Z 29016KT 09/M14 A2992 RMK A01 T00931135  RH  018%=      5-min Rain = 0
KTA1 120219Z 29015KT 09/M13 A2992 RMK A01 T00931134  RH  019%=      5-min Rain = 0
KTA1 120220Z 29015KT 09/M13 A2992 RMK A01 T00931134  RH  019%=      5-min Rain = 0
KTA1 120221Z 28016G21KT 09/M13 A2992 RMK A01 T00921134  RH  019%=      5-min Rain = 0
KTA1 120222Z 28016KT 09/M13 A2992 RMK A01 T00931133  RH  019%=      5-min Rain = 0
KTA1 120223Z 28016G21KT 09/M13 A2992 RMK A01 T00921134  RH  019%=      5-min Rain = 0
KTA1 120224Z 28014KT 09/M13 A2992 RMK A01 T00921133  RH  019%=      5-min Rain = 0
KTA1 120225Z 28014KT 09/M13 A2993 RMK A01 T00911133  RH  019%=      5-min Rain = 0
KTA1 120226Z 28014KT 09/M13 A2993 RMK A01 T00911131  RH  019%=      5-min Rain = 0
KTA1 120227Z 28014KT 09/M13 A2993 RMK A01 T00891131  RH  020%=      5-min Rain = 0
KTA1 120228Z 28015KT 09/M13 A2993 RMK A01 T00891130  RH  020%=      5-min Rain = 0
KTA1 120229Z 29015KT 09/M13 A2993 RMK A01 T00891130  RH  020%=      5-min Rain = 0
KTA1 120230Z 29014G19KT 09/M13 A2993 RMK A01 T00891130  RH  020%=      5-min Rain = 0
KTA1 120231Z 29014KT 09/M13 A2994 RMK A01 T00891129  RH  020%=      5-min Rain = 0
KTA1 120232Z 29016KT 09/M13 A2994 RMK A01 T00891130  RH  020%=      5-min Rain = 0
KTA1 120233Z 29016KT 09/M13 A2994 RMK A01 T00881131  RH  020%=      5-min Rain = 0
KTA1 120234Z 29016KT 09/M13 A2994 RMK A01 T00891131  RH  020%=      5-min Rain = 0
KTA1 120235Z 28016KT 09/M13 A2994 RMK A01 T00901132  RH  019%=      5-min Rain = 0
KTA1 120236Z 28015G20KT 09/M13 A2994 RMK A01 T00901130  RH  020%=      5-min Rain = 0
KTA1 120237Z 28016KT 09/M13 A2994 RMK A01 T00891130  RH  020%=      5-min Rain = 0
KTA1 120238Z 28017KT 09/M13 A2994 RMK A01 T00891130  RH  020%=      5-min Rain = 0
KTA1 120239Z 28018KT 09/M13 A2994 RMK A01 T00901130  RH  020%=      5-min Rain = 0
KTA1 120240Z 28018KT 09/M13 A2994 RMK A01 T00901132  RH  019%=      5-min Rain = 0
KTA1 120241Z 29017KT 09/M13 A2994 RMK A01 T00911133  RH  019%=      5-min Rain = 0
KTA1 120242Z 28018KT 09/M13 A2994 RMK A01 T00911132  RH  019%=      5-min Rain = 0
KTA1 120243Z 28017KT 09/M13 A2994 RMK A01 T00911132  RH  019%=      5-min Rain = 0
KTA1 120244Z 28015KT 09/M13 A2994 RMK A01 T00901132  RH  019%=      5-min Rain = 0
KTA1 120245Z 28017KT 09/M13 A2994 RMK A01 T00901131  RH  019%=      5-min Rain = 0
KTA1 120246Z 28017KT 09/M13 A2994 RMK A01 T00901131  RH  019%=      5-min Rain = 0
KTA1 120247Z 29016KT 09/M13 A2994 RMK A01 T00901131  RH  020%=      5-min Rain = 0
KTA1 120248Z 28015KT 09/M13 A2995 RMK A01 T00891130  RH  020%=      5-min Rain = 0
KTA1 120249Z 29014KT 09/M13 A2995 RMK A01 T00881129  RH  020%=      5-min Rain = 0
KTA1 120250Z 29014KT 09/M13 A2995 RMK A01 T00871129  RH  020%=      5-min Rain = 0
KTA1 120251Z 29015KT 09/M13 A2995 RMK A01 T00871128  RH  020%=      5-min Rain = 0
KTA1 120252Z 29016KT 09/M13 A2995 RMK A01 T00871129  RH  020%=      5-min Rain = 0
KTA1 120253Z 29014KT 09/M13 A2995 RMK A01 T00871130  RH  020%=      5-min Rain = 0
KTA1 120254Z 28016G21KT 09/M13 A2995 RMK A01 T00871128  RH  020%=      5-min Rain = 0
KTA1 120255Z 28015G20KT 09/M13 A2995 RMK A01 T00871129  RH  020%=      5-min Rain = 0
KTA1 120256Z 28016G21KT 09/M13 A2995 RMK A01 T00871130  RH  020%=      5-min Rain = 0
KTA1 120257Z 28017KT 09/M13 A2995 RMK A01 T00881130  RH  020%=      5-min Rain = 0
KTA1 120258Z 28016KT 09/M13 A2995 RMK A01 T00881130  RH  020%=      5-min Rain = 0
KTA1 120259Z 28017KT 09/M13 A2995 RMK A01 T00881131  RH  020%=      5-min Rain = 0
KTA1 120300Z 28018KT 09/M13 A2995 RMK A01 T00881131  RH  020%=      5-min Rain = 0
KTA1 120301Z 28016KT 09/M13 A2995 RMK A01 T00891132  RH  020%=      5-min Rain = 0
KTA1 120302Z 28016KT 09/M13 A2996 RMK A01 T00891132  RH  020%=      5-min Rain = 0
KTA1 120303Z 28016KT 09/M13 A2996 RMK A01 T00881131  RH  020%=      5-min Rain = 0
KTA1 120304Z 28016KT 09/M13 A2996 RMK A01 T00881131  RH  020%=      5-min Rain = 0
KTA1 120305Z 28015KT 09/M13 A2996 RMK A01 T00871131  RH  020%=      5-min Rain = 0
KTA1 120306Z 28015KT 09/M13 A2996 RMK A01 T00871130  RH  020%=      5-min Rain = 0
KTA1 120307Z 28015KT 09/M13 A2996 RMK A01 T00861131  RH  020%=      5-min Rain = 0
KTA1 120308Z 28015KT 09/M13 A2996 RMK A01 T00861131  RH  020%=      5-min Rain = 0
KTA1 120309Z 28015KT 09/M13 A2996 RMK A01 T00861131  RH  020%=      5-min Rain = 0
KTA1 120310Z 28015KT 09/M13 A2996 RMK A01 T00861130  RH  020%=      5-min Rain = 0
KTA1 120311Z 28014KT 09/M13 A2996 RMK A01 T00851131  RH  020%=      5-min Rain = 0
KTA1 120312Z 28014KT 09/M13 A2996 RMK A01 T00851130  RH  020%=      5-min Rain = 0
KTA1 120313Z 28014KT 09/M13 A2996 RMK A01 T00851130  RH  020%=      5-min Rain = 0
KTA1 120314Z 27013KT 08/M13 A2996 RMK A01 T00841129  RH  021%=      5-min Rain = 0
KTA1 120315Z 27013KT 08/M13 A2996 RMK A01 T00831129  RH  021%=      5-min Rain = 0
KTA1 120316Z 27014KT 08/M13 A2996 RMK A01 T00821129  RH  021%=      5-min Rain = 0
KTA1 120317Z 28013KT 08/M13 A2996 RMK A01 T00821130  RH  021%=      5-min Rain = 0
KTA1 120318Z 27015KT 08/M13 A2996 RMK A01 T00821130  RH  021%=      5-min Rain = 0
KTA1 120319Z 27013KT 08/M13 A2996 RMK A01 T00821130  RH  021%=      5-min Rain = 0
KTA1 120320Z 28014KT 08/M13 A2997 RMK A01 T00821129  RH  021%=      5-min Rain = 0
KTA1 120321Z 28014KT 08/M13 A2997 RMK A01 T00811128  RH  021%=      5-min Rain = 0
KTA1 120322Z 27014KT 08/M13 A2997 RMK A01 T00811129  RH  021%=      5-min Rain = 0
KTA1 120323Z 27015KT 08/M13 A2997 RMK A01 T00811128  RH  021%=      5-min Rain = 0
KTA1 120324Z 28015G20KT 08/M13 A2997 RMK A01 T00801128  RH  021%=      5-min Rain = 0
KTA1 120325Z 28016KT 08/M13 A2997 RMK A01 T00811129  RH  021%=      5-min Rain = 0
KTA1 120326Z 28015KT 08/M13 A2997 RMK A01 T00811129  RH  021%=      5-min Rain = 0
KTA1 120327Z 28016KT 08/M13 A2997 RMK A01 T00821129  RH  021%=      5-min Rain = 0
KTA1 120328Z 28014KT 08/M13 A2997 RMK A01 T00821128  RH  021%=      5-min Rain = 0
KTA1 120329Z 28015KT 08/M13 A2997 RMK A01 T00811127  RH  021%=      5-min Rain = 0
KTA1 120330Z 28014G19KT 08/M13 A2997 RMK A01 T00811128  RH  021%=      5-min Rain = 0
KTA1 120331Z 28014KT 08/M13 A2997 RMK A01 T00801128  RH  021%=      5-min Rain = 0
KTA1 120332Z 28015KT 08/M13 A2997 RMK A01 T00801128  RH  021%=      5-min Rain = 0
KTA1 120333Z 28016KT 08/M13 A2997 RMK A01 T00811129  RH  021%=      5-min Rain = 0
KTA1 120334Z 27016KT 08/M13 A2997 RMK A01 T00811129  RH  021%=      5-min Rain = 0
KTA1 120335Z 27013KT 08/M13 A2997 RMK A01 T00821128  RH  021%=      5-min Rain = 0
KTA1 120336Z 27016G21KT 08/M13 A2997 RMK A01 T00821127  RH  021%=      5-min Rain = 0
KTA1 120337Z 28016KT 08/M13 A2997 RMK A01 T00821128  RH  021%=      5-min Rain = 0
KTA1 120338Z 28017G22KT 08/M13 A2998 RMK A01 T00831129  RH  021%=      5-min Rain = 0
KTA1 120339Z 27016KT 08/M13 A2998 RMK A01 T00841129  RH  021%=      5-min Rain = 0
KTA1 120340Z 28019G24KT 09/M13 A2998 RMK A01 T00851129  RH  021%=      5-min Rain = 0
KTA1 120341Z 28016KT 09/M13 A2998 RMK A01 T00861129  RH  020%=      5-min Rain = 0
KTA1 120342Z 28016KT 09/M13 A2998 RMK A01 T00861129  RH  020%=      5-min Rain = 0
KTA1 120343Z 28017KT 09/M13 A2998 RMK A01 T00861128  RH  020%=      5-min Rain = 0
KTA1 120344Z 28015KT 09/M13 A2998 RMK A01 T00861128  RH  021%=      5-min Rain = 0
KTA1 120345Z 28015KT 09/M13 A2998 RMK A01 T00851127  RH  021%=      5-min Rain = 0
KTA1 120346Z 28017G22KT 09/M13 A2999 RMK A01 T00851127  RH  021%=      5-min Rain = 0
KTA1 120347Z 27016KT 09/M13 A2999 RMK A01 T00851127  RH  021%=      5-min Rain = 0
KTA1 120348Z 28016KT 09/M13 A2999 RMK A01 T00851127  RH  021%=      5-min Rain = 0
KTA1 120349Z 28016KT 09/M13 A2999 RMK A01 T00851127  RH  021%=      5-min Rain = 0
KTA1 120350Z 28014KT 09/M13 A2999 RMK A01 T00851127  RH  021%=      5-min Rain = 0
KTA1 120351Z 28014KT 09/M13 A2999 RMK A01 T00851126  RH  021%=      5-min Rain = 0
KTA1 120352Z 28015KT 09/M13 A2999 RMK A01 T00851126  RH  021%=      5-min Rain = 0
KTA1 120353Z 27015KT 09/M13 A2999 RMK A01 T00851126  RH  021%=      5-min Rain = 0
KTA1 120354Z 28014KT 09/M13 A2999 RMK A01 T00851126  RH  021%=      5-min Rain = 0
KTA1 120355Z 28013KT 08/M13 A2999 RMK A01 T00841125  RH  021%=      5-min Rain = 0
KTA1 120356Z 27016G21KT 08/M13 A2999 RMK A01 T00831125  RH  021%=      5-min Rain = 0
KTA1 120357Z 27015KT 08/M13 A2999 RMK A01 T00831126  RH  021%=      5-min Rain = 0
KTA1 120358Z 27015KT 08/M13 A30 RMK A01 T00831126  RH  021%=      5-min Rain = 0
KTA1 120359Z 27014KT 08/M13 A30 RMK A01 T00831126  RH  021%=      5-min Rain = 0
KTA1 120400Z 27013KT 08/M13 A30 RMK A01 T00821125  RH  022%=      5-min Rain = 0
KTA1 120401Z 27014KT 08/M13 A30 RMK A01 T00811126  RH  022%=      5-min Rain = 0
KTA1 120402Z 27013KT 08/M13 A30 RMK A01 T00811126  RH  021%=      5-min Rain = 0
KTA1 120403Z 27013KT 08/M13 A30 RMK A01 T00811126  RH  022%=      5-min Rain = 0
KTA1 120404Z 27013G18KT 08/M13 A30 RMK A01 T00801126  RH  022%=      5-min Rain = 0
KTA1 120405Z 27015KT 08/M13 A30 RMK A01 T00801127  RH  022%=      5-min Rain = 0
KTA1 120406Z 27014KT 08/M13 A30 RMK A01 T00801127  RH  021%=      5-min Rain = 0
KTA1 120407Z 27013KT 08/M13 A30 RMK A01 T00801128  RH  021%=      5-min Rain = 0
KTA1 120408Z 27014KT 08/M13 A30 RMK A01 T00811128  RH  021%=      5-min Rain = 0
KTA1 120409Z 27013KT 08/M13 A30 RMK A01 T00801128  RH  021%=      5-min Rain = 0
KTA1 120410Z 27013KT 08/M13 A30 RMK A01 T00801128  RH  021%=      5-min Rain = 0
KTA1 120411Z 27013KT 08/M13 A30 RMK A01 T00791128  RH  022%=      5-min Rain = 0
KTA1 120412Z 27013KT 08/M13 A30 RMK A01 T00781128  RH  022%=      5-min Rain = 0
KTA1 120413Z 27013KT 08/M13 A30 RMK A01 T00781128  RH  022%=      5-min Rain = 0
KTA1 120414Z 27014KT 08/M13 A30 RMK A01 T00781128  RH  022%=      5-min Rain = 0
KTA1 120415Z 27016KT 08/M13 A30 RMK A01 T00781129  RH  021%=      5-min Rain = 0
KTA1 120416Z 27017KT 08/M13 A30 RMK A01 T00781129  RH  021%=      5-min Rain = 0
KTA1 120417Z 27015G21KT 08/M13 A3001 RMK A01 T00791130  RH  021%=      5-min Rain = 0
KTA1 120418Z 27016KT 08/M13 A3001 RMK A01 T00791130  RH  021%=      5-min Rain = 0
KTA1 120419Z 27015KT 08/M13 A3001 RMK A01 T00801130  RH  021%=      5-min Rain = 0
KTA1 120420Z 27016KT 08/M13 A3001 RMK A01 T00801129  RH  021%=      5-min Rain = 0
KTA1 120421Z 28017KT 08/M13 A3001 RMK A01 T00801128  RH  021%=      5-min Rain = 0
KTA1 120422Z 28016KT 08/M13 A3001 RMK A01 T00801129  RH  021%=      5-min Rain = 0
KTA1 120423Z 28016KT 08/M13 A3001 RMK A01 T00801129  RH  021%=      5-min Rain = 0
KTA1 120424Z 27016G21KT 08/M13 A3001 RMK A01 T00801128  RH  021%=      5-min Rain = 0
KTA1 120425Z 28016KT 08/M13 A3001 RMK A01 T00791128  RH  022%=      5-min Rain = 0
KTA1 120426Z 27016KT 08/M13 A3001 RMK A01 T00791128  RH  022%=      5-min Rain = 0
KTA1 120427Z 28016KT 08/M13 A3001 RMK A01 T00791128  RH  022%=      5-min Rain = 0
KTA1 120428Z 28018KT 08/M13 A3001 RMK A01 T00781128  RH  022%=      5-min Rain = 0
KTA1 120429Z 28015KT 08/M13 A3001 RMK A01 T00781128  RH  022%=      5-min Rain = 0
KTA1 120430Z 28019KT 08/M13 A3001 RMK A01 T00771127  RH  022%=      5-min Rain = 0
KTA1 120431Z 27019G24KT 08/M13 A3001 RMK A01 T00771128  RH  022%=      5-min Rain = 0
KTA1 120432Z 28016G21KT 08/M13 A3001 RMK A01 T00781128  RH  022%=      5-min Rain = 0
KTA1 120433Z 28019KT 08/M13 A3001 RMK A01 T00781127  RH  022%=      5-min Rain = 0
KTA1 120434Z 28019KT 08/M13 A3001 RMK A01 T00781128  RH  022%=      5-min Rain = 0
KTA1 120435Z 28019G26KT 08/M13 A3001 RMK A01 T00781128  RH  022%=      5-min Rain = 0
KTA1 120436Z 28018KT 08/M13 A3001 RMK A01 T00781127  RH  022%=      5-min Rain = 0
KTA1 120437Z 28018G24KT 08/M13 A3001 RMK A01 T00771126  RH  022%=      5-min Rain = 0
KTA1 120438Z 28016G21KT 08/M13 A3001 RMK A01 T00771126  RH  022%=      5-min Rain = 0
KTA1 120439Z 28016KT 08/M13 A3001 RMK A01 T00771125  RH  022%=      5-min Rain = 0
KTA1 120440Z 28017KT 08/M13 A3001 RMK A01 T00761125  RH  022%=      5-min Rain = 0
KTA1 120441Z 28014KT 08/M13 A3001 RMK A01 T00761125  RH  022%=      5-min Rain = 0
KTA1 120442Z 27016KT 08/M13 A3001 RMK A01 T00751125  RH  023%=      5-min Rain = 0
KTA1 120443Z 27017KT 08/M13 A3002 RMK A01 T00751125  RH  023%=      5-min Rain = 0
KTA1 120444Z 28016KT 08/M13 A3002 RMK A01 T00751125  RH  023%=      5-min Rain = 0
KTA1 120445Z 28015KT 07/M12 A3002 RMK A01 T00741124  RH  023%=      5-min Rain = 0
KTA1 120446Z 28016G21KT 07/M12 A3002 RMK A01 T00741124  RH  023%=      5-min Rain = 0
KTA1 120447Z 28016KT 07/M12 A3002 RMK A01 T00741124  RH  023%=      5-min Rain = 0
KTA1 120448Z 28015KT 07/M12 A3002 RMK A01 T00741124  RH  023%=      5-min Rain = 0
KTA1 120449Z 27016KT 07/M12 A3002 RMK A01 T00731124  RH  023%=      5-min Rain = 0
KTA1 120450Z 27015KT 07/M12 A3002 RMK A01 T00731123  RH  023%=      5-min Rain = 0
KTA1 120451Z 27015KT 07/M12 A3002 RMK A01 T00731123  RH  023%=      5-min Rain = 0
KTA1 120452Z 27017KT 07/M12 A3002 RMK A01 T00731123  RH  023%=      5-min Rain = 0
KTA1 120453Z 27017KT 07/M12 A3002 RMK A01 T00731124  RH  023%=      5-min Rain = 0
KTA1 120454Z 27016KT 07/M12 A3002 RMK A01 T00731123  RH  023%=      5-min Rain = 0
KTA1 120455Z 27015KT 07/M12 A3002 RMK A01 T00731123  RH  023%=      5-min Rain = 0
KTA1 120456Z 28015G20KT 07/M12 A3002 RMK A01 T00721122  RH  024%=      5-min Rain = 0
KTA1 120457Z 28014KT 07/M12 A3002 RMK A01 T00711121  RH  024%=      5-min Rain = 0
KTA1 120458Z 28017KT 07/M12 A3002 RMK A01 T00711121  RH  024%=      5-min Rain = 0
KTA1 120459Z 28015KT 07/M12 A3002 RMK A01 T00711121  RH  024%=      5-min Rain = 0
KTA1 120500Z 28016KT 07/M12 A3002 RMK A01 T00711121  RH  024%=      5-min Rain = 0
KTA1 120501Z 28018KT 07/M12 A3002 RMK A01 T00711121  RH  024%=      5-min Rain = 0
KTA1 120502Z 28015KT 07/M12 A3002 RMK A01 T00711121  RH  024%=      5-min Rain = 0
KTA1 120503Z 28016KT 07/M12 A3003 RMK A01 T00721119  RH  024%=      5-min Rain = 0
KTA1 120504Z 28016KT 07/M12 A3003 RMK A01 T00711120  RH  024%=      5-min Rain = 0
KTA1 120505Z 28015KT 07/M12 A3003 RMK A01 T00721120  RH  024%=      5-min Rain = 0
KTA1 120506Z 27016KT 07/M12 A3003 RMK A01 T00731119  RH  024%=      5-min Rain = 0
KTA1 120507Z 27015G20KT 07/M12 A3003 RMK A01 T00731120  RH  024%=      5-min Rain = 0
KTA1 120508Z 28016G22KT 07/M12 A3002 RMK A01 T00731119  RH  024%=      5-min Rain = 0
KTA1 120509Z 27016G22KT 07/M12 A3003 RMK A01 T00741120  RH  024%=      5-min Rain = 0
KTA1 120510Z 28018KT 08/M12 A3003 RMK A01 T00751120  RH  024%=      5-min Rain = 0
KTA1 120511Z 28017G22KT 08/M12 A3003 RMK A01 T00761120  RH  023%=      5-min Rain = 0
KTA1 120512Z 28018KT 08/M12 A3003 RMK A01 T00761120  RH  023%=      5-min Rain = 0
KTA1 120513Z 28016KT 08/M12 A3003 RMK A01 T00771120  RH  023%=      5-min Rain = 0
KTA1 120514Z 27015G20KT 08/M12 A3003 RMK A01 T00771119  RH  023%=      5-min Rain = 0
KTA1 120515Z 28017KT 08/M12 A3003 RMK A01 T00771119  RH  024%=      5-min Rain = 0
KTA1 120516Z 27018G23KT 08/M12 A3003 RMK A01 T00771119  RH  024%=      5-min Rain = 0
KTA1 120517Z 27017G22KT 08/M12 A3003 RMK A01 T00771119  RH  023%=      5-min Rain = 0
KTA1 120518Z 28017G22KT 08/M12 A3003 RMK A01 T00781118  RH  023%=      5-min Rain = 0
KTA1 120519Z 28016KT 08/M12 A3003 RMK A01 T00781118  RH  024%=      5-min Rain = 0
KTA1 120520Z 28015KT 08/M12 A3003 RMK A01 T00771117  RH  024%=      5-min Rain = 0
KTA1 120521Z 28016KT 08/M12 A3003 RMK A01 T00761116  RH  024%=      5-min Rain = 0
KTA1 120522Z 28015G20KT 08/M12 A3003 RMK A01 T00761116  RH  024%=      5-min Rain = 0
KTA1 120523Z 28017G23KT 08/M12 A3003 RMK A01 T00771116  RH  024%=      5-min Rain = 0
KTA1 120524Z 28015G20KT 08/M12 A3003 RMK A01 T00771116  RH  024%=      5-min Rain = 0
KTA1 120525Z 28016KT 08/M12 A3003 RMK A01 T00771116  RH  024%=      5-min Rain = 0
KTA1 120526Z 28017KT 08/M12 A3003 RMK A01 T00771116  RH  024%=      5-min Rain = 0
KTA1 120527Z 27016KT 08/M12 A3003 RMK A01 T00761116  RH  024%=      5-min Rain = 0
KTA1 120528Z 28015KT 08/M12 A3004 RMK A01 T00771116  RH  024%=      5-min Rain = 0
KTA1 120529Z 28018KT 08/M12 A3004 RMK A01 T00771115  RH  024%=      5-min Rain = 0
KTA1 120530Z 28015KT 08/M12 A3004 RMK A01 T00771115  RH  024%=      5-min Rain = 0
KTA1 120531Z 28015G20KT 08/M11 A3004 RMK A01 T00761114  RH  024%=      5-min Rain = 0
KTA1 120532Z 28016G21KT 08/M11 A3004 RMK A01 T00761113  RH  025%=      5-min Rain = 0
KTA1 120533Z 28016KT 08/M11 A3004 RMK A01 T00761114  RH  025%=      5-min Rain = 0
KTA1 120534Z 27015KT 08/M11 A3004 RMK A01 T00761114  RH  025%=      5-min Rain = 0
KTA1 120535Z 27015G20KT 08/M11 A3004 RMK A01 T00761113  RH  025%=      5-min Rain = 0
KTA1 120536Z 28016KT 08/M11 A3004 RMK A01 T00761114  RH  025%=      5-min Rain = 0
KTA1 120537Z 27016KT 08/M11 A3004 RMK A01 T00761114  RH  025%=      5-min Rain = 0
KTA1 120538Z 28016KT 08/M11 A3004 RMK A01 T00771113  RH  025%=      5-min Rain = 0
KTA1 120539Z 28017KT 08/M11 A3004 RMK A01 T00771114  RH  024%=      5-min Rain = 0
KTA1 120540Z 28016KT 08/M11 A3004 RMK A01 T00771114  RH  024%=      5-min Rain = 0
KTA1 120541Z 28014KT 08/M11 A3004 RMK A01 T00771113  RH  025%=      5-min Rain = 0
KTA1 120542Z 28016KT 08/M11 A3004 RMK A01 T00761112  RH  025%=      5-min Rain = 0
KTA1 120543Z 28014G19KT 08/M11 A3004 RMK A01 T00751113  RH  025%=      5-min Rain = 0
KTA1 120544Z 28016G22KT 08/M11 A3004 RMK A01 T00751112  RH  025%=      5-min Rain = 0
KTA1 120545Z 28018KT 08/M11 A3004 RMK A01 T00751113  RH  025%=      5-min Rain = 0
KTA1 120546Z 28016KT 08/M11 A3004 RMK A01 T00761113  RH  025%=      5-min Rain = 0
KTA1 120547Z 28016KT 08/M11 A3004 RMK A01 T00761112  RH  025%=      5-min Rain = 0
KTA1 120548Z 28017KT 08/M11 A3004 RMK A01 T00761112  RH  025%=      5-min Rain = 0
KTA1 120549Z 28015G20KT 08/M11 A3004 RMK A01 T00761112  RH  025%=      5-min Rain = 0
KTA1 120550Z 28018KT 08/M11 A3004 RMK A01 T00761112  RH  025%=      5-min Rain = 0
KTA1 120551Z 29016KT 08/M11 A3004 RMK A01 T00761112  RH  025%=      5-min Rain = 0
KTA1 120552Z 29014KT 08/M11 A3004 RMK A01 T00761112  RH  025%=      5-min Rain = 0
KTA1 120553Z 28015G21KT 08/M11 A3004 RMK A01 T00751111  RH  025%=      5-min Rain = 0
KTA1 120554Z 28017G22KT 08/M11 A3004 RMK A01 T00751111  RH  025%=      5-min Rain = 0
KTA1 120555Z 29015G20KT 08/M11 A3004 RMK A01 T00761111  RH  025%=      5-min Rain = 0
KTA1 120556Z 29018KT 08/M11 A3004 RMK A01 T00761111  RH  025%=      5-min Rain = 0
KTA1 120557Z 29015KT 08/M11 A3004 RMK A01 T00771112  RH  025%=      5-min Rain = 0
KTA1 120558Z 29016KT 08/M11 A3004 RMK A01 T00771111  RH  025%=      5-min Rain = 0
KTA1 120559Z 29018G23KT 08/M11 A3004 RMK A01 T00771112  RH  025%=      5-min Rain = 0

Page generated in 0.1398 seconds.